Home > Products > Valid Products > MTR

000
SAUS46 KLOX 221952
MTRSMX
METAR KSMX 221951Z 02017G31KT 10SM CLR 22/11 A3013 RMK AO2 PK WND
02031/1945 SLP202 T02220106





000
SAUS46 KLOX 221949
MTRSDB
METAR KSDB 221948Z AUTO 34020G27KT 10SM CLR 13/04 A3021 RMK AO2 PK
WND 33029/1915 SLP199 T01330044





000
SAUS46 KLOX 221948
MTRCQT
METAR KCQT 221947Z AUTO 00000KT 9SM CLR 22/09 A2999 RMK AO2 SLP154
T02220094





000
SAUS46 KLOX 221936
MTRMWS
METAR KMWS 221930Z 23500G00KT MM/M04 RMK SNOW DEPTH 4.00





000
SAUS46 KLOX 221915
MTRMWS
METAR KMWS 221900Z 03000G02KT 22/M05 RMK SNOW DEPTH 4.00





000
SAUS46 KLOX 221859
MTR9L2
METAR K9L2 221855Z AUTO 11003KT 10SM CLR 11/07 A3014 RMK AO2 SLP213
T01110067 TSNO $





000
SAUS46 KLOX 221854
MTRSMX
METAR KSMX 221851Z 01013G23KT 10SM CLR 22/11 A3015 RMK AO2 SLP212
T02220111





000
SAUS46 KLOX 221854
MTRMWS
METAR KMWS 221845Z 25000G02KT 22/M05 RMK SNOW DEPTH 3.00





000
SAUS46 KLOX 221854
MTRLAX
METAR KLAX 221853Z 00000KT 8SM FEW010 SCT180 19/11 A3004 RMK AO2
SLP171 T01940106





000
SAUS46 KLOX 221849
MTRSDB
METAR KSDB 221848Z AUTO 34016KT 10SM CLR 14/03 A3022 RMK AO2 PK WND
35027/1749 SLP202 T01440028 PWINO





000
SAUS46 KLOX 221848
MTRCQT
METAR KCQT 221847Z AUTO 00000KT 10SM CLR 21/09 A3003 RMK AO2 SLP167
T02110089





000
SAUS46 KLOX 221836
MTRMWS
METAR KMWS 221830Z 23500G00KT MM/M05 RMK SNOW DEPTH 4.00





000
SAUS46 KLOX 221815
MTRMWS
METAR KMWS 221800Z 04001G02KT 21/M07 RMK SNOW DEPTH 3.00





000
SAUS46 KLOX 221756
MTR9L2
METAR K9L2 221755Z AUTO 00000KT 10SM CLR 08/06 A3016 RMK AO2 SLP223
T00830056 10083 20006 55001 TSNO $





000
SAUS46 KLOX 221754
MTRLAX
METAR KLAX 221753Z 13003KT 9SM FEW160 17/11 A3006 RMK AO2 SLP177
T01670106 10167 20100 51009





000
SAUS46 KLOX 221754
MTRMWS
METAR KMWS 221745Z 34501G03KT 21/M07 RMK SNOW DEPTH 3.00





000
SAUS46 KLOX 221753
MTRSMX
METAR KSMX 221751Z 35014G26KT 10SM CLR 21/11 A3016 RMK AO2 PK WND
02029/1713 SLP215 T02110106 10211 20150 53004





000
SAUS46 KLOX 221749
MTRSDB
METAR KSDB 221748Z AUTO 01012G29KT 10SM CLR 16/00 A3022 RMK AO2 PK
WND 03029/1745 SLP203 T01560000 10156 20089 58001 PWINO





000
SAUS46 KLOX 221748
MTRCQT
METAR KCQT 221747Z AUTO 00000KT 8SM CLR 18/11 A3005 RMK AO2 SLP175
T01830106 10183 20100 51007





000
SAUS46 KLOX 221736
MTRMWS
METAR KMWS 221730Z 23500G00KT MM/M06 RMK SNOW DEPTH 3.00





000
SAUS46 KLOX 221715
MTRMWS
METAR KMWS 221700Z 16001G02KT 18/M06 RMK SNOW DEPTH 3.00





000
SAUS46 KLOX 221700
MTR9L2
METAR K9L2 221655Z AUTO 22003KT 10SM CLR 06/06 A3016 RMK AO2 SLP221
T00610056 TSNO $





000
SAUS46 KLOX 221654
MTRMWS
METAR KMWS 221645Z 31001G03KT 17/M06 RMK SNOW DEPTH 3.00





000
SAUS46 KLOX 221654
MTRLAX
METAR KLAX 221653Z 13004KT 7SM FEW005 SCT160 14/10 A3006 RMK AO2
SLP177 T01440100





000
SAUS46 KLOX 221653
MTRSMX
METAR KSMX 221651Z 04014G24KT 10SM CLR 21/11 A3014 RMK AO2 PK WND
01026/1623 SLP209 T02060106





000
SAUS46 KLOX 221649
MTRSDB
METAR KSDB 221648Z AUTO 01010G25KT 10SM CLR 12/04 A3023 RMK AO2 PK
WND 35028/1601 SLP211 T01220039 PWINO





000
SAUS46 KLOX 221648
MTRCQT
METAR KCQT 221647Z AUTO 00000KT 5SM HZ CLR 14/09 A3005 RMK AO2
SLP174 T01390094





000
SAUS46 KLOX 221636
MTRMWS
METAR KMWS 221630Z 23500G00KT MM/M06 RMK SNOW DEPTH 3.00





000
SAUS46 KLOX 221634
MTR9L2
SPECI K9L2 221633Z AUTO 00000KT 3SM BR FEW001 06/05 A3016 RMK AO2
TSNO $





000
SAUS46 KLOX 221628
MTR9L2
SPECI K9L2 221627Z AUTO 00000KT 1 1/4SM BR FEW001 06/04 A3017 RMK
AO2 TSNO $





000
SAUS46 KLOX 221621
MTR9L2
SPECI K9L2 221620Z AUTO 00000KT 3/4SM BR VV001 04/04 A3017 RMK AO2
TSNO $





000
SAUS46 KLOX 221616
MTR9L2
SPECI K9L2 221615Z AUTO 00000KT 1 3/4SM BR SCT001 04/03 A3017 RMK
AO2 TSNO $





000
SAUS46 KLOX 221615
MTRMWS
METAR KMWS 221600Z 01502G05KT 13/M06 RMK SNOW DEPTH 3.00





000
SAUS46 KLOX 221611
MTR9L2
SPECI K9L2 221607Z AUTO 00000KT 5SM BR SCT001 04/03 A3017 RMK AO2
TSNO $





000
SAUS46 KLOX 221602
MTR9L2
SPECI K9L2 221602Z AUTO 00000KT 2SM BR BKN001 04/03 A3017 RMK AO2
TSNO $





000
SAUS46 KLOX 221559
MTR9L2
METAR K9L2 221555Z AUTO 00000KT 1 1/4SM BR BKN001 03/03 A3017 RMK
AO2 SLP227 T00330028 TSNO $





000
SAUS46 KLOX 221559
MTR9L2
METAR K9L2 221555Z AUTO 00000KT 1 1/4SM BR BKN001 03/03 A3017 RMK
AO2 SLP227 T00330028 TSNO $





000
SAUS46 KLOX 221554
MTRMWS
METAR KMWS 221545Z  0501G04KT 14/M05 RMK SNOW DEPTH 3.00





000
SAUS46 KLOX 221554
MTRLAX
METAR KLAX 221553Z 00000KT 5SM BCFG BR FEW001 SCT005 SCT160 13/10
A3005 RMK AO2 SLP173 T01280100





000
SAUS46 KLOX 221554
MTRMWS
METAR KMWS 221545Z  0501G04KT 14/M05 RMK SNOW DEPTH 3.00





000
SAUS46 KLOX 221554
MTRLAX
METAR KLAX 221553Z 00000KT 5SM BCFG BR FEW001 SCT005 SCT160 13/10
A3005 RMK AO2 SLP173 T01280100





000
SAUS46 KLOX 221552
MTRSMX
METAR KSMX 221551Z 01015KT 10SM CLR 19/11 A3015 RMK AO2 SLP209
T01890106





000
SAUS46 KLOX 221552
MTRSMX
METAR KSMX 221551Z 01015KT 10SM CLR 19/11 A3015 RMK AO2 SLP209
T01890106





000
SAUS46 KLOX 221549
MTRSDB
METAR KSDB 221548Z AUTO 01008G19KT 10SM CLR 09/05 A3023 RMK AO2 PK
WND 35032/1532 SLP212 T00940050 PWINO





000
SAUS46 KLOX 221549
MTRSDB
METAR KSDB 221548Z AUTO 01008G19KT 10SM CLR 09/05 A3023 RMK AO2 PK
WND 35032/1532 SLP212 T00940050 PWINO





000
SAUS46 KLOX 221548
MTRCQT
METAR KCQT 221547Z AUTO 00000KT 5SM BR CLR 11/08 A3004 RMK AO2
SLP171 T01060083





000
SAUS46 KLOX 221548
MTRCQT
METAR KCQT 221547Z AUTO 00000KT 5SM BR CLR 11/08 A3004 RMK AO2
SLP171 T01060083





000
SAUS46 KLOX 221544
MTR9L2
SPECI K9L2 221543Z AUTO 00000KT 1/2SM FG VV001 03/03 A3017 RMK AO2
TSNO $





000
SAUS46 KLOX 221544
MTR9L2
SPECI K9L2 221543Z AUTO 00000KT 1/2SM FG VV001 03/03 A3017 RMK AO2
TSNO $





000
SAUS46 KLOX 221536
MTRMWS
METAR KMWS 221530Z 23500G00KT MM/M07 RMK SNOW DEPTH 3.00





000
SAUS46 KLOX 221515
MTRMWS
METAR KMWS 221500Z 03003G04KT 12/M08 RMK SNOW DEPTH 3.00





000
SAUS46 KLOX 221515
MTR9L2
SPECI K9L2 221514Z AUTO 30004KT 1/4SM FG VV001 01/00 A3017 RMK AO2
FZRANO TSNO $





000
SAUS46 KLOX 221459
MTR9L2
SPECI K9L2 221459Z AUTO 00000KT 1/2SM FG VV001 01/00 A3017 RMK AO2
FZRANO TSNO $





000
SAUS46 KLOX 221456
MTR9L2
METAR K9L2 221455Z AUTO 00000KT 1/4SM FG VV001 01/01 A3017 RMK AO2
SLP226 T00110006 56000 FZRANO TSNO $





000
SAUS46 KLOX 221454
MTRMWS
METAR KMWS 221445Z 02501G03KT 13/M07 RMK SNOW DEPTH 3.00





000
SAUS46 KLOX 221454
MTRLAX
METAR KLAX 221453Z 11003KT 4SM BCFG BR FEW001 SCT003 SCT160 12/10
A3004 RMK AO2 SLP169 VIS S 2 1/2 T01170100 55002





000
SAUS46 KLOX 221452
MTRSMX
METAR KSMX 221451Z 36011KT 10SM CLR 18/11 A3015 RMK AO2 SLP211
T01780106 55001





000
SAUS46 KLOX 221449
MTRSDB
METAR KSDB 221448Z AUTO 36013G31KT 10SM FEW010 09/06 A3022 RMK AO2
PK WND 34037/1404 SLP213 T00890056 52002 PWINO





000
SAUS46 KLOX 221448
MTRCQT
METAR KCQT 221447Z AUTO 00000KT 5SM BR CLR 10/08 A3003 RMK AO2
SLP169 T01000083 55002





000
SAUS46 KLOX 221445
MTR9L2
SPECI K9L2 221445Z AUTO 00000KT 1/2SM FG VV001 01/01 A3016 RMK AO2
FZRANO TSNO $





000
SAUS46 KLOX 221440
MTR9L2
SPECI K9L2 221440Z AUTO 00000KT 1/4SM FG VV001 01/01 A3016 RMK AO2
FZRANO TSNO $





000
SAUS46 KLOX 221436
MTRMWS
METAR KMWS 221430Z 23500G00KT MM/M10 RMK SNOW DEPTH 3.00





000
SAUS46 KLOX 221431
MTR9L2
SPECI K9L2 221431Z AUTO 00000KT 1/2SM FG VV001 01/01 A3016 RMK AO2
FZRANO TSNO $





000
SAUS46 KLOX 221423
MTR9L2
SPECI K9L2 221423Z AUTO 00000KT 3/4SM BR VV001 01/01 A3016 RMK AO2
FZRANO TSNO $





000
SAUS46 KLOX 221416
MTR9L2
SPECI K9L2 221415Z AUTO 31003KT 1/2SM FG VV001 01/00 A3016 RMK AO2
FZRANO TSNO $





000
SAUS46 KLOX 221415
MTRMWS
METAR KMWS 221400Z 01505G08KT 14/M11 RMK SNOW DEPTH 3.00





000
SAUS46 KLOX 221409
MTR9L2
SPECI K9L2 221409Z AUTO 34003KT 3/4SM BR VV001 01/00 A3016 RMK AO2
FZRANO TSNO $





000
SAUS46 KLOX 221407
MTR9L2
SPECI K9L2 221405Z AUTO 35004KT 1SM BR VV001 01/00 A3017 RMK AO2
FZRANO TSNO $





000
SAUS46 KLOX 221405
MTR9L2
SPECI K9L2 221401Z AUTO 00000KT 3/4SM BR VV001 01/01 A3016 RMK AO2
FZRANO TSNO $





000
SAUS46 KLOX 221357
MTR9L2
METAR K9L2 221355Z AUTO 00000KT 1/2SM FG VV001 01/00 A3017 RMK AO2
SLP226 T00110000 FZRANO TSNO $





000
SAUS46 KLOX 221354
MTRLAX
METAR KLAX 221353Z 11003KT 3SM BCFG BR FEW001 SCT003 11/09 A3004 RMK
AO2 SLP169 VIS SW 2 1/2 FG BANK SW ASOS VIS 5 T01060094





000
SAUS46 KLOX 221354
MTRLAX
METAR KLAX 221353Z 11003KT 3SM BCFG BR FEW001 SCT003 11/09 A3004 RMK
AO2 SLP169 VIS SW 2 1/2 FG BANK SW ASOS VIS 5 T01060094





000
SAUS46 KLOX 221354
MTRMWS
METAR KMWS 221345Z 23500G00KT MM/M10 RMK SNOW DEPTH 4.00





000
SAUS46 KLOX 221354
MTRMWS
METAR KMWS 221345Z 23500G00KT MM/M10 RMK SNOW DEPTH 4.00





000
SAUS46 KLOX 221353
MTRSMX
METAR KSMX 221351Z AUTO 35012G20KT 10SM CLR 18/11 A3015 RMK AO2
SLP209 T01830106 TSNO $





000
SAUS46 KLOX 221353
MTRSMX
METAR KSMX 221351Z AUTO 35012G20KT 10SM CLR 18/11 A3015 RMK AO2
SLP209 T01830106 TSNO $





000
SAUS46 KLOX 221349
MTRSDB
METAR KSDB 221348Z AUTO 34023G34KT 10SM FEW006 09/06 A3022 RMK AO2
PK WND 34037/1249 SLP212 T00890056 PWINO $





000
SAUS46 KLOX 221349
MTR9L2
SPECI K9L2 221348Z AUTO 35003KT 3/4SM BR VV001 01/00 A3017 RMK AO2
FZRANO TSNO $





000
SAUS46 KLOX 221349
MTRSDB
METAR KSDB 221348Z AUTO 34023G34KT 10SM FEW006 09/06 A3022 RMK AO2
PK WND 34037/1249 SLP212 T00890056 PWINO $





000
SAUS46 KLOX 221349
MTR9L2
SPECI K9L2 221348Z AUTO 35003KT 3/4SM BR VV001 01/00 A3017 RMK AO2
FZRANO TSNO $





000
SAUS46 KLOX 221348
MTRCQT
METAR KCQT 221347Z AUTO 00000KT 5SM BR CLR 10/08 A3003 RMK AO2
SLP169 T01000083





000
SAUS46 KLOX 221348
MTRCQT
METAR KCQT 221347Z AUTO 00000KT 5SM BR CLR 10/08 A3003 RMK AO2
SLP169 T01000083





000
SAUS46 KLOX 221347
MTR9L2
SPECI K9L2 221343Z AUTO 35003KT 1SM BR VV001 01/00 A3017 RMK AO2
FZRANO TSNO $





000
SAUS46 KLOX 221347
MTR9L2
SPECI K9L2 221343Z AUTO 35003KT 1SM BR VV001 01/00 A3017 RMK AO2
FZRANO TSNO $





000
SAUS46 KLOX 221336
MTRMWS
METAR KMWS 221330Z 23500G00KT MM/M09 RMK SNOW DEPTH 3.00





000
SAUS46 KLOX 221329
MTRLAX
SPECI KLAX 221327Z 05005KT 3SM BCFG BR FEW001 SCT003 SCT200 11/10
A3004 RMK AO2 VIS 2 1/2V4 VIS S 2 1/2 FG BANK S ASOS VIS 4





000
SAUS46 KLOX 221329
MTRLAX
SPECI KLAX 221327Z 05005KT 3SM BCFG BR FEW001 SCT003 SCT200 11/10
A3004 RMK AO2 VIS 2 1/2V4 VIS S 2 1/2 FG BANK S ASOS VIS 4





000
SAUS46 KLOX 221326
MTR9L2
SPECI K9L2 221322Z AUTO 00000KT 1 3/4SM BR OVC001 01/01 A3016 RMK
AO2 FZRANO TSNO $





000
SAUS46 KLOX 221326
MTR9L2
SPECI K9L2 221322Z AUTO 00000KT 1 3/4SM BR OVC001 01/01 A3016 RMK
AO2 FZRANO TSNO $





000
SAUS46 KLOX 221315
MTRMWS
METAR KMWS 221300Z 03003G06KT 14/M10 RMK SNOW DEPTH 3.00





000
SAUS46 KLOX 221315
MTRMWS
METAR KMWS 221300Z 03003G06KT 14/M10 RMK SNOW DEPTH 3.00





000
SAUS46 KLOX 221300
MTR9L2
SPECI K9L2 221300Z AUTO 00000KT 4SM BR OVC001 01/01 A3016 RMK AO2
FZRANO TSNO $





000
SAUS46 KLOX 221300
MTR9L2
SPECI K9L2 221300Z AUTO 00000KT 4SM BR OVC001 01/01 A3016 RMK AO2
FZRANO TSNO $





000
SAUS46 KLOX 221259
MTR9L2
METAR K9L2 221255Z AUTO 00000KT 1 1/4SM BR OVC001 01/00 A3016 RMK
AO2 SLP221 T00110000 FZRANO TSNO $





000
SAUS46 KLOX 221254
MTRMWS
METAR KMWS 221245Z 03001G03KT 14/M08 RMK SNOW DEPTH 3.00





000
SAUS46 KLOX 221254
MTRLAX
METAR KLAX 221253Z 00000KT 2 1/2SM BR FEW003 SCT200 11/10 A3003 RMK
AO2 SLP167 VIS E 4 ASOS VIS 3 T01060100





000
SAUS46 KLOX 221253
MTRSMX
METAR KSMX 221251Z AUTO 33008KT 10SM CLR 16/11 A3015 RMK AO2 SLP210
T01560106 TSNO $





000
SAUS46 KLOX 221249
MTRSDB
METAR KSDB 221248Z AUTO 35026G33KT 10SM FEW008 09/06 A3022 RMK AO2
PK WND 35044/1207 WSHFT 1140 SLP212 T00890056 PWINO $





000
SAUS46 KLOX 221248
MTRCQT
METAR KCQT 221247Z AUTO 00000KT 4SM BR CLR 10/08 A3003 RMK AO2
SLP168 T01000083





000
SAUS46 KLOX 221247
MTR9L2
SPECI K9L2 221247Z AUTO 00000KT 3/4SM BR VV001 01/00 A3015 RMK AO2
FZRANO TSNO $





000
SAUS46 KLOX 221244
MTR9L2
SPECI K9L2 221240Z AUTO 00000KT 1/2SM FG VV001 01/01 A3015 RMK AO2
FZRANO TSNO $





000
SAUS46 KLOX 221236
MTRMWS
METAR KMWS 221230Z 23500G00KT MM/M07 RMK SNOW DEPTH 3.00





000
SAUS46 KLOX 221215
MTRMWS
METAR KMWS 221200Z 02005G07KT 13/M08 RMK SNOW DEPTH 3.00





000
SAUS46 KLOX 221208
MTR9L2
SPECI K9L2 221207Z AUTO 00000KT 1/4SM FG VV001 02/01 A3016 RMK AO2
FZRANO TSNO $





000
SAUS46 KLOX 221203
MTRSDB
SPECI KSDB 221201Z AUTO 34025G44KT 10SM SCT008 09/06 A3023 RMK AO2
PK WND 35044/1155 WSHFT 1140 T00940056 PWINO $





000
SAUS46 KLOX 221158
MTRSDB
SPECI KSDB 221157Z AUTO 34032G44KT 10SM BKN008 09/06 A3021 RMK AO2
PK WND 35044/1155 WSHFT 1140 CIG 006V011 T00890056 PWINO $





000
SAUS46 KLOX 221156
MTR9L2
METAR K9L2 221155Z AUTO 00000KT 1/2SM FG VV001 02/01 A3015 RMK AO2
SLP216 60001 70001 T00220011 10056 20017 58001 FZRANO TSNO $





000
SAUS46 KLOX 221154
MTRLAX
METAR KLAX 221153Z 00000KT 5SM BR FEW003 SCT200 11/11 A3004 RMK AO2
SLP171 T01110106 10156 20111 51003





000
SAUS46 KLOX 221154
MTRMWS
METAR KMWS 221145Z 04003G05KT 15/M07 RMK SNOW DEPTH 3.00





000
SAUS46 KLOX 221153
MTRSMX
METAR KSMX 221151Z AUTO 30011KT 10SM CLR 16/11 A3015 RMK AO2 SLP212
T01560111 10167 20133 58009 TSNO $





000
SAUS46 KLOX 221149
MTRSDB
METAR KSDB 221148Z AUTO 35030G40KT 10SM BKN008 09/06 A3022 RMK AO2
PK WND 36040/1148 CIG 006V011 SLP211 T00890061 10094 20089 51005
PWINO $





000
SAUS46 KLOX 221148
MTRCQT
METAR KCQT 221147Z AUTO 00000KT 4SM BR CLR 11/09 A3004 RMK AO2
SLP171 T01060089 10139 20100 51004





000
SAUS46 KLOX 221143
MTR9L2
SPECI K9L2 221142Z AUTO 00000KT 1/4SM FG VV001 02/01 A3015 RMK AO2
FZRANO TSNO $





000
SAUS46 KLOX 221139
MTR9L2
SPECI K9L2 221137Z AUTO 00000KT 3/4SM BR VV001 02/01 A3016 RMK AO2
FZRANO TSNO $





000
SAUS46 KLOX 221136
MTRMWS
METAR KMWS 221130Z 23500G00KT MM/M07 RMK SNOW DEPTH 3.00





000
SAUS46 KLOX 221124
MTR9L2
SPECI K9L2 221124Z AUTO 00000KT 1 3/4SM BR BKN002 02/02 A3016 RMK
AO2 VIS 1/2V5 FZRANO TSNO $





000
SAUS46 KLOX 221115
MTRMWS
METAR KMWS 221100Z 12504G06KT 16/M08 RMK SNOW DEPTH 3.00





000
SAUS46 KLOX 221059
MTR9L2
SPECI K9L2 221059Z AUTO 27003KT 3SM BR SCT002 03/02 A3017 RMK AO2
TSNO $





000
SAUS46 KLOX 221056
MTR9L2
METAR K9L2 221055Z AUTO 00000KT 1 3/4SM BR SCT002 03/02 A3017 RMK
AO2 SLP221 T00280022 TSNO $





000
SAUS46 KLOX 221054
MTRLAX
METAR KLAX 221053Z 12004KT 6SM BR FEW200 11/11 A3004 RMK AO2 SLP171
T01110106





000
SAUS46 KLOX 221054
MTRMWS
METAR KMWS 221045Z 11002G04KT 15/M10 RMK SNOW DEPTH 4.00





000
SAUS46 KLOX 221054
MTRMWS
METAR KMWS 221045Z 11002G04KT 15/M10 RMK SNOW DEPTH 4.00





000
SAUS46 KLOX 221054
MTRLAX
METAR KLAX 221053Z 12004KT 6SM BR FEW200 11/11 A3004 RMK AO2 SLP171
T01110106





000
SAUS46 KLOX 221053
MTR9L2
SPECI K9L2 221053Z AUTO 00000KT 1 1/4SM BR SCT002 03/02 A3017 RMK
AO2 TSNO $





000
SAUS46 KLOX 221053
MTRSMX
METAR KSMX 221051Z AUTO 01009KT 330V030 10SM CLR 16/11 A3016 RMK AO2
SLP215 T01610111 TSNO $





000
SAUS46 KLOX 221053
MTR9L2
SPECI K9L2 221053Z AUTO 00000KT 1 1/4SM BR SCT002 03/02 A3017 RMK
AO2 TSNO $





000
SAUS46 KLOX 221053
MTRSMX
METAR KSMX 221051Z AUTO 01009KT 330V030 10SM CLR 16/11 A3016 RMK AO2
SLP215 T01610111 TSNO $





000
SAUS46 KLOX 221049
MTRSDB
METAR KSDB 221048Z AUTO 01013G28KT 10SM FEW008 09/06 A3022 RMK AO2
PK WND 35042/1024 SLP209 T00940061 PWINO $





000
SAUS46 KLOX 221049
MTRSDB
METAR KSDB 221048Z AUTO 01013G28KT 10SM FEW008 09/06 A3022 RMK AO2
PK WND 35042/1024 SLP209 T00940061 PWINO $





000
SAUS46 KLOX 221048
MTRCQT
METAR KCQT 221047Z AUTO 00000KT 5SM BR CLR 11/09 A3004 RMK AO2
SLP171 T01110089





000
SAUS46 KLOX 221048
MTRCQT
METAR KCQT 221047Z AUTO 00000KT 5SM BR CLR 11/09 A3004 RMK AO2
SLP171 T01110089





000
SAUS46 KLOX 221045
MTR9L2
SPECI K9L2 221045Z AUTO 31005KT 3/4SM BR VV002 03/02 A3017 RMK AO2
TSNO $





000
SAUS46 KLOX 221045
MTR9L2
SPECI K9L2 221045Z AUTO 31005KT 3/4SM BR VV002 03/02 A3017 RMK AO2
TSNO $





000
SAUS46 KLOX 221045
MTR9L2
SPECI K9L2 221041Z AUTO 32004KT 1SM BR VV002 02/02 A3016 RMK AO2
FZRANO TSNO $





000
SAUS46 KLOX 221036
MTRMWS
METAR KMWS 221030Z 23500G00KT MM/M07 RMK SNOW DEPTH 3.00





000
SAUS46 KLOX 221031
MTR9L2
SPECI K9L2 221031Z AUTO 00000KT 2 1/2SM BR BKN001 02/02 A3016 RMK
AO2 VIS 1 1/2V4 FZRANO TSNO $





000
SAUS46 KLOX 221017
MTR9L2
SPECI K9L2 221017Z AUTO 00000KT 7SM BKN001 03/02 A3016 RMK AO2 TSNO
$





000
SAUS46 KLOX 221015
MTRMWS
METAR KMWS 221000Z 03005G08KT 13/M07 RMK SNOW DEPTH 3.00





000
SAUS46 KLOX 220956
MTR9L2
METAR K9L2 220955Z AUTO 00000KT 8SM SCT001 03/02 A3015 RMK AO2
SLP216 T00280017 TSNO $





000
SAUS46 KLOX 220954
MTRMWS
METAR KMWS 220945Z 23500G00KT MM/M05 RMK SNOW DEPTH 3.00





000
SAUS46 KLOX 220954
MTRLAX
METAR KLAX 220953Z 00000KT 6SM BR FEW200 12/12 A3003 RMK AO2 SLP169
T01220117





000
SAUS46 KLOX 220952
MTRSMX
METAR KSMX 220951Z AUTO 30009KT 10SM CLR 14/11 A3017 RMK AO2 SLP218
T01440111 TSNO $





000
SAUS46 KLOX 220949
MTRSDB
METAR KSDB 220948Z AUTO 35029G38KT 10SM SCT008 09/07 A3021 RMK AO2
PK WND 34052/0901 SLP208 T00940067 PWINO $





000
SAUS46 KLOX 220948
MTRCQT
METAR KCQT 220947Z AUTO 00000KT 4SM BR CLR 12/09 A3003 RMK AO2
SLP168 T01170094





000
SAUS46 KLOX 220946
MTR9L2
SPECI K9L2 220946Z AUTO 00000KT 9SM FEW001 03/02 A3015 RMK AO2 TSNO
$





000
SAUS46 KLOX 220936
MTRMWS
METAR KMWS 220930Z 23500G00KT MM/M05 RMK SNOW DEPTH 3.00





000
SAUS46 KLOX 220915
MTRMWS
METAR KMWS 220900Z 34501G04KT 13/M05 RMK SNOW DEPTH 3.00





000
SAUS46 KLOX 220913
MTRSDB
SPECI KSDB 220912Z AUTO 33037G51KT 10SM SCT005 09/06 A3020 RMK AO2
PK WND 34052/0901 T00940061 PWINO $





000
SAUS46 KLOX 220908
MTRSDB
SPECI KSDB 220907Z AUTO 33042G52KT 10SM BKN005 09/07 A3020 RMK AO2
PK WND 34052/0901 T00940067 PWINO $





000
SAUS46 KLOX 220859
MTR9L2
METAR K9L2 220855Z AUTO 00000KT 7SM CLR 03/02 A3016 RMK AO2 SLP218
P0001 60001 T00330022 58008 TSNO $





000
SAUS46 KLOX 220855
MTRLAX
METAR KLAX 220853Z 10003KT 7SM FEW200 12/12 A3003 RMK AO2 SLP169
T01220117 58009





000
SAUS46 KLOX 220854
MTRMWS
METAR KMWS 220845Z 23500G00KT MM/M05 RMK SNOW DEPTH 3.00





000
SAUS46 KLOX 220852
MTRSMX
METAR KSMX 220851Z AUTO 34009KT 10SM CLR 15/11 A3018 RMK AO2 SLP221
T01500111 57009 TSNO $





000
SAUS46 KLOX 220850
MTRSDB
METAR KSDB 220848Z AUTO 34038G54KT 10SM BKN004 09/07 A3020 RMK AO2
PK WND 34054/0842 WSHFT 0737 CIG 003V008 SLP204 T00940067 58024
PWINO $





000
SAUS46 KLOX 220845
MTRSDB
SPECI KSDB 220844Z AUTO 33039G54KT 10SM BKN004 09/06 A3020 RMK AO2
PK WND 34054/0842 WSHFT 0737 CIG 003V008 T00940061 PWINO $





000
SAUS46 KLOX 220836
MTRMWS
METAR KMWS 220830Z 23500G00KT MM/M05 RMK SNOW DEPTH 3.00





000
SAUS46 KLOX 220815
MTRMWS
METAR KMWS 220800Z 31000G03KT 12/M05 RMK SNOW DEPTH 3.00





000
SAUS46 KLOX 220815
MTRMWS
METAR KMWS 220800Z 31000G03KT 12/M05 RMK SNOW DEPTH 3.00





000
SAUS46 KLOX 220807
MTRSDB
SPECI KSDB 220805Z AUTO 34036G43KT 10SM OVC005 09/07 A3021 RMK AO2
PK WND 34043/0801 WSHFT 0737 CIG 002V007 T00890067 PWINO $





000
SAUS46 KLOX 220807
MTRSDB
SPECI KSDB 220805Z AUTO 34036G43KT 10SM OVC005 09/07 A3021 RMK AO2
PK WND 34043/0801 WSHFT 0737 CIG 002V007 T00890067 PWINO $





000
SAUS46 KLOX 220756
MTR9L2
METAR K9L2 220755Z AUTO 06003KT 9SM CLR 04/03 A3016 RMK AO2 SLP223
T00440033 401560017 TSNO $





000
SAUS46 KLOX 220756
MTR9L2
METAR K9L2 220755Z AUTO 06003KT 9SM CLR 04/03 A3016 RMK AO2 SLP223
T00440033 401560017 TSNO $





000
SAUS46 KLOX 220755
MTRSDB
SPECI KSDB 220754Z AUTO 34037G45KT 10SM OVC003 09/07 A3022 RMK AO2
PK WND 34045/0750 WSHFT 0737 CIG 002V006 PRESFR T00940067 PWINO $





000
SAUS46 KLOX 220755
MTRSDB
SPECI KSDB 220754Z AUTO 34037G45KT 10SM OVC003 09/07 A3022 RMK AO2
PK WND 34045/0750 WSHFT 0737 CIG 002V006 PRESFR T00940067 PWINO $





000
SAUS46 KLOX 220754
MTRMWS
METAR KMWS 220745Z 35500G02KT 12/M04 RMK SNOW DEPTH 3.00





000
SAUS46 KLOX 220754
MTRLAX
METAR KLAX 220753Z 12006KT 7SM SCT200 14/12 A3005 RMK AO2 SLP175
T01390122 401830106





000
SAUS46 KLOX 220754
MTRMWS
METAR KMWS 220745Z 35500G02KT 12/M04 RMK SNOW DEPTH 3.00





000
SAUS46 KLOX 220754
MTRLAX
METAR KLAX 220753Z 12006KT 7SM SCT200 14/12 A3005 RMK AO2 SLP175
T01390122 401830106





000
SAUS46 KLOX 220753
MTRSMX
METAR KSMX 220751Z AUTO 33009KT 10SM CLR 15/12 A3019 RMK AO2 SLP224
T01500117 402220117 TSNO $





000
SAUS46 KLOX 220753
MTRSMX
METAR KSMX 220751Z AUTO 33009KT 10SM CLR 15/12 A3019 RMK AO2 SLP224
T01500117 402220117 TSNO $





000
SAUS46 KLOX 220749
MTRSDB
METAR KSDB 220748Z AUTO 34031G38KT 10SM OVC003 09/07 A3023 RMK AO2
PK WND 34038/0746 PRESFR SLP212 T00940067 401110067 PWINO $





000
SAUS46 KLOX 220749
MTRSDB
METAR KSDB 220748Z AUTO 34031G38KT 10SM OVC003 09/07 A3023 RMK AO2
PK WND 34038/0746 PRESFR SLP212 T00940067 401110067 PWINO $





000
SAUS46 KLOX 220748
MTRCQT
METAR KCQT 220747Z AUTO 00000KT 4SM BR CLR 13/11 A3005 RMK AO2
SLP176 T01330111 402000100





000
SAUS46 KLOX 220748
MTRCQT
METAR KCQT 220747Z AUTO 00000KT 4SM BR CLR 13/11 A3005 RMK AO2
SLP176 T01330111 402000100





000
SAUS46 KLOX 220739
MTRSDB
SPECI KSDB 220738Z AUTO 36012G24KT 10SM OVC003 09/07 A3026 RMK AO2
CIG 002V007 T00940072 PWINO $





000
SAUS46 KLOX 220739
MTRSDB
SPECI KSDB 220738Z AUTO 36012G24KT 10SM OVC003 09/07 A3026 RMK AO2
CIG 002V007 T00940072 PWINO $





000
SAUS46 KLOX 220736
MTRMWS
METAR KMWS 220730Z 23500G00KT MM/M03 RMK SNOW DEPTH 3.00





000
SAUS46 KLOX 220736
MTRMWS
METAR KMWS 220730Z 23500G00KT MM/M03 RMK SNOW DEPTH 3.00





000
SAUS46 KLOX 220715
MTRMWS
METAR KMWS 220700Z  0504G07KT 13/M04 RMK SNOW DEPTH 3.00





000
SAUS46 KLOX 220715
MTRMWS
METAR KMWS 220700Z  0504G07KT 13/M04 RMK SNOW DEPTH 3.00





000
SAUS46 KLOX 220659
MTR9L2
METAR K9L2 220655Z AUTO 00000KT 10SM CLR 04/03 A3017 RMK AO2 SLP228
T00440033 TSNO $





000
SAUS46 KLOX 220654
MTRLAX
METAR KLAX 220653Z 00000KT 6SM HZ SCT200 16/13 A3006 RMK AO2 SLP178
T01560128





000
SAUS46 KLOX 220654
MTRMWS
METAR KMWS 220645Z 35503G09KT 13/M04 RMK SNOW DEPTH 3.00





000
SAUS46 KLOX 220653
MTRSMX
METAR KSMX 220651Z AUTO 34008KT 10SM CLR 15/11 A3020 RMK AO2 SLP227
T01500111 TSNO $





000
SAUS46 KLOX 220649
MTRSDB
METAR KSDB 220648Z AUTO 02011G19KT 10SM OVC006 09/07 A3027 RMK AO2
CIG 005V011 SLP225 T00940072 PWINO $





000
SAUS46 KLOX 220648
MTRCQT
METAR KCQT 220647Z AUTO 00000KT 4SM BR CLR 13/11 A3005 RMK AO2
SLP175 T01330111





000
SAUS46 KLOX 220636
MTRMWS
METAR KMWS 220630Z 23500G00KT MM/M02 RMK SNOW DEPTH 3.00





000
SAUS46 KLOX 220623
MTRSDB
SPECI KSDB 220622Z AUTO 04007KT 10SM OVC006 09/08 A3028 RMK AO2
T00940078 PWINO $





000
SAUS46 KLOX 220616
MTRMWS
METAR KMWS 220600Z  0003G09KT 12/M02 RMK SNOW DEPTH 3.00





000
SAUS46 KLOX 220604
MTRSDB
SPECI KSDB 220603Z AUTO VRB04KT 8SM OVC004 09/08 A3028 RMK AO2
T00890078 PWINO $





000
SAUS46 KLOX 220600
MTRSDB
SPECI KSDB 220559Z AUTO 08007KT 2SM BR OVC004 09/08 A3028 RMK AO2
T00890078 PWINO $





000
SAUS46 KLOX 220559
MTR9L2
METAR K9L2 220555Z AUTO 31003KT 10SM CLR 06/04 A3018 RMK AO2 SLP229
T00560044 10144 20056 53010 TSNO $





000
SAUS46 KLOX 220554
MTRMWS
METAR KMWS 220545Z 15001G04KT 12/M03 RMK SNOW DEPTH 3.00





000
SAUS46 KLOX 220554
MTRLAX
METAR KLAX 220553Z 00000KT 6SM BR BKN180 BKN220 15/13 A3006 RMK AO2
SLP178 T01500128 10161 20144 51005





000
SAUS46 KLOX 220553
MTRSMX
METAR KSMX 220551Z AUTO 33008KT 10SM BKN038 17/12 A3021 RMK AO2
SLP230 T01670117 10189 20139 50005 TSNO $





000
SAUS46 KLOX 220548
MTRCQT
METAR KCQT 220547Z AUTO 00000KT 4SM BR CLR 14/12 A3005 RMK AO2
SLP176 T01390117 10178 20139 51004





000
SAUS46 KLOX 220547
MTRSDB
METAR KSDB 220547Z AUTO 11007G14KT 1 1/4SM BR OVC002 09/08 A3028 RMK
AO2 SLP233 T00890078 10089 20083 53023 PWINO $





000
SAUS46 KLOX 220540
MTRSDB
SPECI KSDB 220539Z AUTO 08009G16KT 020V130 4SM BR OVC002 09/08 A3028
RMK AO2 T00890078 PWINO $





000
SAUS46 KLOX 220536
MTRMWS
METAR KMWS 220530Z 23500G00KT MM/00 RMK SNOW DEPTH 3.00





000
SAUS46 KLOX 220528
MTRSDB
SPECI KSDB 220527Z AUTO VRB06G18KT 1 1/2SM BR OVC001 09/08 A3028 RMK
AO2 T00890078 PWINO $





000
SAUS46 KLOX 220525
MTRSDB
SPECI KSDB 220524Z AUTO 01009G21KT 340V080 3SM BR OVC001 09/07 A3028
RMK AO2 T00890072 PWINO $





000
SAUS46 KLOX 220523
MTRSDB
SPECI KSDB 220522Z AUTO 01008G21KT 330V060 1SM BR VV001 09/07 A3028
RMK AO2 T00890072 PWINO $





000
SAUS46 KLOX 220515
MTRMWS
METAR KMWS 220500Z 32505G07KT 12/M01 RMK SNOW DEPTH 3.00





000
SAUS46 KLOX 220457
MTR9L2
METAR K9L2 220455Z AUTO 00000KT 10SM CLR 08/06 A3017 RMK AO2 SLP225
T00780061 TSNO $





000
SAUS46 KLOX 220454
MTRMWS
METAR KMWS 220445Z 23500G00KT MM/M02 RMK SNOW DEPTH 3.00





000
SAUS46 KLOX 220454
MTRLAX
METAR KLAX 220453Z 09004KT 5SM BR BKN180 BKN220 14/13 A3006 RMK AO2
SLP177 T01440128





000
SAUS46 KLOX 220453
MTRSMX
METAR KSMX 220451Z AUTO 01005KT 10SM BKN036 16/11 A3021 RMK AO2
SLP231 T01610111 TSNO $





000
SAUS46 KLOX 220449
MTRSDB
METAR KSDB 220448Z AUTO 02007G17KT 310V110 M1/4SM FG VV001 08/07
A3027 RMK AO2 PK WND 34038/0353 SLP231 T00830072 PWINO $





000
SAUS46 KLOX 220448
MTRCQT
METAR KCQT 220447Z AUTO 00000KT 5SM HZ CLR 15/12 A3005 RMK AO2
SLP176 T01500122





000
SAUS46 KLOX 220436
MTRMWS
METAR KMWS 220430Z 23500G00KT MM/M01 RMK SNOW DEPTH 3.00





000
SAUS46 KLOX 220415
MTRMWS
METAR KMWS 220400Z 34502G05KT 11/M03 RMK SNOW DEPTH 3.00





000
SAUS46 KLOX 220356
MTR9L2
METAR K9L2 220355Z AUTO 12003KT 10SM CLR 09/07 A3016 RMK AO2 SLP224
T00890067 TSNO $





000
SAUS46 KLOX 220354
MTRMWS
METAR KMWS 220345Z  0003G06KT 12/M01 RMK SNOW DEPTH 2.00





000
SAUS46 KLOX 220354
MTRLAX
METAR KLAX 220353Z 00000KT 7SM BKN200 OVC250 16/13 A3005 RMK AO2
SLP176 T01610133





000
SAUS46 KLOX 220353
MTRSMX
METAR KSMX 220351Z 33003KT 10SM CLR 14/12 A3020 RMK AO2 SLP230
T01440117 $





000
SAUS46 KLOX 220349
MTRSDB
METAR KSDB 220348Z AUTO 34030G39KT 1/4SM FG VV001 09/07 A3021 RMK
AO2 PK WND 36042/0309 SLP209 T00890072 PWINO $





000
SAUS46 KLOX 220348
MTRCQT
METAR KCQT 220347Z AUTO 00000KT 5SM HZ CLR 16/12 A3005 RMK AO2
SLP176 T01560122





000
SAUS46 KLOX 220348
MTRCQT
METAR KCQT 220347Z AUTO 00000KT 5SM HZ CLR 16/12 A3005 RMK AO2
SLP176 T01560122





000
SAUS46 KLOX 220336
MTRMWS
METAR KMWS 220330Z 23500G00KT MM/00 RMK SNOW DEPTH 2.00





000
SAUS46 KLOX 220315
MTRMWS
METAR KMWS 220300Z  0503G06KT 10/00 RMK SNOW DEPTH 2.00





000
SAUS46 KLOX 220259
MTR9L2
METAR K9L2 220255Z AUTO 22004KT 10SM CLR 10/07 A3015 RMK AO2 SLP220
T01000067 53010 TSNO $





000
SAUS46 KLOX 220254
MTRMWS
METAR KMWS 220245Z  0503G10KT 10/01 RMK SNOW DEPTH 2.00





000
SAUS46 KLOX 220254
MTRLAX
METAR KLAX 220253Z 12005KT 6SM HZ BKN200 OVC250 16/13 A3004 RMK AO2
SLP173 T01560133 55002





000
SAUS46 KLOX 220253
MTRSMX
METAR KSMX 220251Z 31006KT 10SM CLR 16/12 A3019 RMK AO2 SLP227
T01560122 51008 $





000
SAUS46 KLOX 220249
MTRSDB
METAR KSDB 220248Z AUTO 35030G40KT 1/4SM FG VV001 09/07 A3021 RMK
AO2 PK WND 34051/0225 SLP208 T00890072 53007 PWINO $





000
SAUS46 KLOX 220249
MTRSDB
METAR KSDB 220248Z AUTO 35030G40KT 1/4SM FG VV001 09/07 A3021 RMK
AO2 PK WND 34051/0225 SLP208 T00890072 53007 PWINO $





000
SAUS46 KLOX 220248
MTRCQT
METAR KCQT 220247Z AUTO 00000KT 6SM HZ CLR 16/12 A3004 RMK AO2
SLP172 T01560122 53001





000
SAUS46 KLOX 220248
MTRCQT
METAR KCQT 220247Z AUTO 00000KT 6SM HZ CLR 16/12 A3004 RMK AO2
SLP172 T01560122 53001





000
SAUS46 KLOX 220243
MTRSDB
SPECI KSDB 220242Z AUTO 35030G45KT 1/4SM FG VV002 09/07 A3020 RMK
AO2 PK WND 34051/0225 PRESRR T00890072 PWINO $





000
SAUS46 KLOX 220243
MTRSDB
SPECI KSDB 220242Z AUTO 35030G45KT 1/4SM FG VV002 09/07 A3020 RMK
AO2 PK WND 34051/0225 PRESRR T00890072 PWINO $





000
SAUS46 KLOX 220239
MTRSDB
SPECI KSDB 220237Z AUTO 34037G48KT 1/2SM FG VV002 09/07 A3018 RMK
AO2 PK WND 34051/0225 T00890067 PWINO $





000
SAUS46 KLOX 220239
MTRSDB
SPECI KSDB 220237Z AUTO 34037G48KT 1/2SM FG VV002 09/07 A3018 RMK
AO2 PK WND 34051/0225 T00890067 PWINO $





000
SAUS46 KLOX 220236
MTRMWS
METAR KMWS 220230Z 23500G00KT MM/00 RMK SNOW DEPTH 2.00





000
SAUS46 KLOX 220236
MTRMWS
METAR KMWS 220230Z 23500G00KT MM/00 RMK SNOW DEPTH 2.00





000
SAUS46 KLOX 220235
MTRSDB
SPECI KSDB 220233Z AUTO 34036G51KT 1/4SM FG VV002 09/07 A3018 RMK
AO2 PK WND 34051/0225 T00890067 PWINO $





000
SAUS46 KLOX 220215
MTRMWS
METAR KMWS 220200Z 29502G09KT 09/M01 RMK SNOW DEPTH 2.00





000
SAUS46 KLOX 220215
MTRMWS
METAR KMWS 220200Z 29502G09KT 09/M01 RMK SNOW DEPTH 2.00





000
SAUS46 KLOX 220156
MTR9L2
METAR K9L2 220155Z AUTO 00000KT 10SM CLR 10/07 A3014 RMK AO2 SLP217
T01000067 TSNO $





000
SAUS46 KLOX 220156
MTR9L2
METAR K9L2 220155Z AUTO 00000KT 10SM CLR 10/07 A3014 RMK AO2 SLP217
T01000067 TSNO $





000
SAUS46 KLOX 220155
MTRLAX
METAR KLAX 220153Z 00000KT 5SM HZ BKN150 BKN200 OVC250 16/14 A3004
RMK AO2 SLP172 T01610139





000
SAUS46 KLOX 220155
MTRLAX
METAR KLAX 220153Z 00000KT 5SM HZ BKN150 BKN200 OVC250 16/14 A3004
RMK AO2 SLP172 T01610139





000
SAUS46 KLOX 220154
MTRMWS
METAR KMWS 220145Z 12002G06KT 10/01 RMK SNOW DEPTH 2.00





000
SAUS46 KLOX 220154
MTRMWS
METAR KMWS 220145Z 12002G06KT 10/01 RMK SNOW DEPTH 2.00





000
SAUS46 KLOX 220152
MTRSMX
METAR KSMX 220151Z 33007KT 10SM FEW038 16/12 A3019 RMK AO2 SLP224
T01610122 $





000
SAUS46 KLOX 220152
MTRSMX
METAR KSMX 220151Z 33007KT 10SM FEW038 16/12 A3019 RMK AO2 SLP224
T01610122 $





000
SAUS46 KLOX 220149
MTRSDB
METAR KSDB 220148Z AUTO 35036G42KT 1/4SM FG VV001 08/07 A3018 RMK
AO2 PK WND 35044/0126 SLP203 T00830067 PWINO $





000
SAUS46 KLOX 220149
MTRCQT
METAR KCQT 220147Z AUTO 00000KT 6SM HZ CLR 16/12 A3004 RMK AO2
SLP170 T01610122





000
SAUS46 KLOX 220149
MTRCQT
METAR KCQT 220147Z AUTO 00000KT 6SM HZ CLR 16/12 A3004 RMK AO2
SLP170 T01610122





000
SAUS46 KLOX 220149
MTRSDB
METAR KSDB 220148Z AUTO 35036G42KT 1/4SM FG VV001 08/07 A3018 RMK
AO2 PK WND 35044/0126 SLP203 T00830067 PWINO $





000
SAUS46 KLOX 220136
MTRMWS
METAR KMWS 220130Z 23500G00KT MM/00 RMK SNOW DEPTH 2.00





000
SAUS46 KLOX 220136
MTRMWS
METAR KMWS 220130Z 23500G00KT MM/00 RMK SNOW DEPTH 2.00





000
SAUS46 KLOX 220135
MTRSDB
SPECI KSDB 220133Z AUTO 34034G44KT 1/4SM FG VV002 08/07 A3019 RMK
AO2 PK WND 35044/0126 T00830067 PWINO $





000
SAUS46 KLOX 220135
MTRSDB
SPECI KSDB 220133Z AUTO 34034G44KT 1/4SM FG VV002 08/07 A3019 RMK
AO2 PK WND 35044/0126 T00830067 PWINO $





000
SAUS46 KLOX 220118
MTRSDB
SPECI KSDB 220116Z AUTO 35034G41KT 1/4SM FG VV001 08/07 A3019 RMK
AO2 PK WND 35042/0058 T00830067 PWINO $





000
SAUS46 KLOX 220118
MTRSDB
SPECI KSDB 220116Z AUTO 35034G41KT 1/4SM FG VV001 08/07 A3019 RMK
AO2 PK WND 35042/0058 T00830067 PWINO $





000
SAUS46 KLOX 220115
MTRMWS
METAR KMWS 220100Z 01004G07KT 07/02 RMK SNOW DEPTH 2.00





000
SAUS46 KLOX 220115
MTRMWS
METAR KMWS 220100Z 01004G07KT 07/02 RMK SNOW DEPTH 2.00





000
SAUS46 KLOX 220057
MTR9L2
METAR K9L2 220055Z AUTO 28003KT 10SM CLR 12/07 A3012 RMK AO2 SLP206
T01220067 TSNO $





000
SAUS46 KLOX 220057
MTR9L2
METAR K9L2 220055Z AUTO 28003KT 10SM CLR 12/07 A3012 RMK AO2 SLP206
T01220067 TSNO $





000
SAUS46 KLOX 220054
MTRMWS
METAR KMWS 220045Z  0000G03KT 08/03 RMK SNOW DEPTH 2.00





000
SAUS46 KLOX 220054
MTRLAX
METAR KLAX 220053Z 26008KT 5SM HZ FEW020 SCT150 BKN200 OVC250 16/13
A3004 RMK AO2 SLP170 T01610133





000
SAUS46 KLOX 220054
MTRMWS
METAR KMWS 220045Z  0000G03KT 08/03 RMK SNOW DEPTH 2.00





000
SAUS46 KLOX 220054
MTRLAX
METAR KLAX 220053Z 26008KT 5SM HZ FEW020 SCT150 BKN200 OVC250 16/13
A3004 RMK AO2 SLP170 T01610133





000
SAUS46 KLOX 220052
MTRSMX
METAR KSMX 220051Z 32010KT 10SM BKN200 18/13 A3018 RMK AO2 SLP222
T01780128 $





000
SAUS46 KLOX 220052
MTRSMX
METAR KSMX 220051Z 32010KT 10SM BKN200 18/13 A3018 RMK AO2 SLP222
T01780128 $





000
SAUS46 KLOX 220050
MTRSDB
METAR KSDB 220048Z AUTO 34036G42KT 1/4SM FG VV002 08/06 A3018 RMK
AO2 PK WND 34043/0028 SLP202 T00830061 PWINO $





000
SAUS46 KLOX 220050
MTRSDB
METAR KSDB 220048Z AUTO 34036G42KT 1/4SM FG VV002 08/06 A3018 RMK
AO2 PK WND 34043/0028 SLP202 T00830061 PWINO $





000
SAUS46 KLOX 220048
MTRCQT
METAR KCQT 220047Z AUTO 00000KT 5SM HZ CLR 17/12 A3004 RMK AO2
SLP172 T01670122





000
SAUS46 KLOX 220048
MTRCQT
METAR KCQT 220047Z AUTO 00000KT 5SM HZ CLR 17/12 A3004 RMK AO2
SLP172 T01670122





000
SAUS46 KLOX 220041
MTRSDB
SPECI KSDB 220040Z AUTO 35034G40KT 1/4SM FG VV002 08/06 A3018 RMK
AO2 PK WND 34043/0028 T00830061 PWINO $





000
SAUS46 KLOX 220041
MTRSDB
SPECI KSDB 220040Z AUTO 35034G40KT 1/4SM FG VV002 08/06 A3018 RMK
AO2 PK WND 34043/0028 T00830061 PWINO $





000
SAUS46 KLOX 220036
MTRMWS
METAR KMWS 220030Z 23500G00KT MM/04 RMK SNOW DEPTH 2.00





000
SAUS46 KLOX 220036
MTRMWS
METAR KMWS 220030Z 23500G00KT MM/04 RMK SNOW DEPTH 2.00





000
SAUS46 KLOX 220028
MTRSDB
SPECI KSDB 220027Z AUTO 35029G43KT 1/2SM FG VV002 09/07 A3019 RMK
AO2 PK WND 33043/0021 T00890067 PWINO $





000
SAUS46 KLOX 220028
MTRSDB
SPECI KSDB 220027Z AUTO 35029G43KT 1/2SM FG VV002 09/07 A3019 RMK
AO2 PK WND 33043/0021 T00890067 PWINO $





000
SAUS46 KLOX 220015
MTRMWS
METAR KMWS 220000Z 32004G05KT 10/03 RMK SNOW DEPTH 2.00





000
SAUS46 KLOX 220015
MTRMWS
METAR KMWS 220000Z 32004G05KT 10/03 RMK SNOW DEPTH 2.00





000
SAUS46 KLOX 212359
MTR9L2
METAR K9L2 212355Z AUTO 36005KT 10SM CLR 14/07 A3012 RMK AO2 SLP204
T01440067 10156 20067 53005 TSNO $





000
SAUS46 KLOX 212359
MTR9L2
METAR K9L2 212355Z AUTO 36005KT 10SM CLR 14/07 A3012 RMK AO2 SLP204
T01440067 10156 20067 53005 TSNO $





000
SAUS46 KLOX 212355
MTRLAX
METAR KLAX 212353Z VRB03KT 5SM HZ FEW150 BKN200 OVC250 16/13 A3005
RMK AO2 SLP175 T01610133 10183 20144 55009





000
SAUS46 KLOX 212355
MTRLAX
METAR KLAX 212353Z VRB03KT 5SM HZ FEW150 BKN200 OVC250 16/13 A3005
RMK AO2 SLP175 T01610133 10183 20144 55009





000
SAUS46 KLOX 212354
MTRMWS
METAR KMWS 212345Z 13001G04KT 12/03 RMK SNOW DEPTH 2.00





000
SAUS46 KLOX 212354
MTRMWS
METAR KMWS 212345Z 13001G04KT 12/03 RMK SNOW DEPTH 2.00





000
SAUS46 KLOX 212352
MTRSMX
METAR KSMX 212351Z 32009KT 10SM FEW042 BKN200 19/14 A3017 RMK AO2
SLP217 T01890139 10222 20172 55002 $





000
SAUS46 KLOX 212352
MTRSMX
METAR KSMX 212351Z 32009KT 10SM FEW042 BKN200 19/14 A3017 RMK AO2
SLP217 T01890139 10222 20172 55002 $





000
SAUS46 KLOX 212350
MTRSDB
METAR KSDB 212348Z AUTO 35023G34KT 1/4SM HZ BKN002 OVC006 09/06
A3021 RMK AO2 PK WND 36037/2326 SLP208 T00890061 10111 20089 50000
PWINO $





000
SAUS46 KLOX 212350
MTRSDB
METAR KSDB 212348Z AUTO 35023G34KT 1/4SM HZ BKN002 OVC006 09/06
A3021 RMK AO2 PK WND 36037/2326 SLP208 T00890061 10111 20089 50000
PWINO $





000
SAUS46 KLOX 212349
MTRCQT
METAR KCQT 212347Z AUTO 00000KT 6SM HZ CLR 18/12 A3004 RMK AO2
SLP172 T01780122 10200 20156 55009





000
SAUS46 KLOX 212349
MTRCQT
METAR KCQT 212347Z AUTO 00000KT 6SM HZ CLR 18/12 A3004 RMK AO2
SLP172 T01780122 10200 20156 55009





000
SAUS46 KLOX 212345
MTRSDB
SPECI KSDB 212344Z AUTO 35021G35KT 1/2SM HZ OVC004 09/06 A3021 RMK
AO2 PK WND 36037/2326 T00890061 PWINO $





000
SAUS46 KLOX 212336
MTRMWS
METAR KMWS 212330Z 23500G00KT MM/01 RMK SNOW DEPTH 2.00





000
SAUS46 KLOX 212336
MTRSDB
SPECI KSDB 212335Z AUTO 35026G37KT 1 1/4SM BR OVC003 09/07 A3021 RMK
AO2 PK WND 36037/2326 T00890067 PWINO $





000
SAUS46 KLOX 212326
MTRSDB
SPECI KSDB 212324Z AUTO 36020G33KT 2SM BR OVC002 09/07 A3021 RMK AO2
PK WND 36033/2320 T00890067 PWINO $





000
SAUS46 KLOX 212315
MTRMWS
METAR KMWS 212300Z 08001G05KT 13/00 RMK SNOW DEPTH 3.00





000
SAUS46 KLOX 212307
MTRSDB
SPECI KSDB 212306Z AUTO 36012G22KT 1 1/2SM BR OVC002 09/07 A3021 RMK
AO2 PK WND 35026/2250 T00890067 PWINO $





000
SAUS46 KLOX 212301
MTRSDB
SPECI KSDB 212259Z AUTO 36012G26KT 1SM BR OVC002 09/07 A3021 RMK AO2
PK WND 35026/2250 T00890067 PWINO $





000
SAUS46 KLOX 212300
MTR9L2
METAR K9L2 212255Z AUTO 33011KT 10SM CLR 14/07 A3010 RMK AO2 WSHFT
2239 SLP199 T01440067 TSNO $





000
SAUS46 KLOX 212254
MTRLAX
METAR KLAX 212253Z 27008KT 6SM HZ FEW150 BKN200 OVC250 17/13 A3004
RMK AO2 SLP173 T01670133





000
SAUS46 KLOX 212254
MTRMWS
METAR KMWS 212245Z 08002G06KT 14/00 RMK SNOW DEPTH 3.00





000
SAUS46 KLOX 212252
MTRSMX
METAR KSMX 212251Z 01010KT 10SM FEW042 BKN200 21/12 A3016 RMK AO2
SLP216 T02110122 $





000
SAUS46 KLOX 212249
MTRSDB
METAR KSDB 212248Z AUTO 36013G26KT 320V030 1/2SM FG VV002 09/07
A3021 RMK AO2 PK WND 33030/2158 SLP209 T00890067 PWINO $





000
SAUS46 KLOX 212249
MTRCQT
METAR KCQT 212247Z AUTO 00000KT 8SM CLR 19/12 A3003 RMK AO2 SLP168
T01940117





000
SAUS46 KLOX 212236
MTRMWS
METAR KMWS 212230Z 23500G00KT MM/02 RMK SNOW DEPTH 3.00





000
SAUS46 KLOX 212216
MTRMWS
METAR KMWS 212200Z 21501G04KT 16/04 RMK SNOW DEPTH 3.00





000
SAUS46 KLOX 212156
MTR9L2
METAR K9L2 212155Z AUTO 06006KT 10SM CLR 15/07 A3009 RMK AO2 SLP193
T01500072 TSNO $





000
SAUS46 KLOX 212156
MTR9L2
METAR K9L2 212155Z AUTO 06006KT 10SM CLR 15/07 A3009 RMK AO2 SLP193
T01500072 TSNO $





000
SAUS46 KLOX 212154
MTRMWS
METAR KMWS 212145Z 08504G07KT 16/01 RMK SNOW DEPTH 3.00





000
SAUS46 KLOX 212154
MTRLAX
METAR KLAX 212153Z 25004KT 7SM FEW150 BKN200 BKN250 17/13 A3006 RMK
AO2 SLP178 T01720128





000
SAUS46 KLOX 212154
MTRMWS
METAR KMWS 212145Z 08504G07KT 16/01 RMK SNOW DEPTH 3.00





000
SAUS46 KLOX 212154
MTRLAX
METAR KLAX 212153Z 25004KT 7SM FEW150 BKN200 BKN250 17/13 A3006 RMK
AO2 SLP178 T01720128





000
SAUS46 KLOX 212152
MTRSMX
METAR KSMX 212151Z 02014KT 10SM FEW042 SCT200 22/12 A3016 RMK AO2
SLP214 T02170117 $





000
SAUS46 KLOX 212152
MTRSMX
METAR KSMX 212151Z 02014KT 10SM FEW042 SCT200 22/12 A3016 RMK AO2
SLP214 T02170117 $





000
SAUS46 KLOX 212149
MTRSDB
METAR KSDB 212148Z AUTO 35017G27KT M1/4SM FG VV001 09/07 A3021 RMK
AO2 PK WND 36027/2142 SLP208 T00890067 PWINO $





000
SAUS46 KLOX 212149
MTRSDB
METAR KSDB 212148Z AUTO 35017G27KT M1/4SM FG VV001 09/07 A3021 RMK
AO2 PK WND 36027/2142 SLP208 T00890067 PWINO $





000
SAUS46 KLOX 212148
MTRCQT
METAR KCQT 212147Z AUTO 00000KT 7SM CLR 20/10 A3004 RMK AO2 SLP171
T02000100





000
SAUS46 KLOX 212148
MTRCQT
METAR KCQT 212147Z AUTO 00000KT 7SM CLR 20/10 A3004 RMK AO2 SLP171
T02000100





000
SAUS46 KLOX 212136
MTRMWS
METAR KMWS 212130Z 23500G00KT MM/M01 RMK SNOW DEPTH 3.00





000
SAUS46 KLOX 212120
MTRSDB
SPECI KSDB 212119Z AUTO 01011G24KT 1/4SM FG VV001 09/07 A3022 RMK
AO2 PK WND 02026/2051 T00890067 PWINO $





000
SAUS46 KLOX 212115
MTRMWS
METAR KMWS 212100Z 34001G08KT 17/01 RMK SNOW DEPTH 3.00





000
SAUS46 KLOX 212059
MTR9L2
METAR K9L2 212055Z AUTO 08003KT 10SM CLR 13/06 A3010 RMK AO2 SLP199
T01280061 58029 TSNO $





000
SAUS46 KLOX 212054
MTRMWS
METAR KMWS 212045Z 27003G06KT 17/03 RMK SNOW DEPTH 3.00





000
SAUS46 KLOX 212054
MTRLAX
METAR KLAX 212053Z 26003KT 8SM FEW150 SCT200 BKN250 18/11 A3008 RMK
AO2 SLP183 T01780111 58027





000
SAUS46 KLOX 212053
MTRSMX
METAR KSMX 212051Z 02009KT 10SM FEW042 22/13 A3018 RMK AO2 SLP220
T02170128 58023 $





000
SAUS46 KLOX 212049
MTRSDB
METAR KSDB 212048Z AUTO 36015G32KT 1/4SM FG VV002 09/07 A3021 RMK
AO2 PK WND 33046/2009 SLP211 T00890067 58001 PWINO $





000
SAUS46 KLOX 212048
MTRCQT
METAR KCQT 212047Z AUTO 00000KT 7SM CLR 19/10 A3007 RMK AO2 SLP181
T01940100 58028





000
SAUS46 KLOX 212047
MTRSDB
SPECI KSDB 212046Z AUTO 01012G32KT 1/4SM HZ VV002 09/07 A3021 RMK
AO2 PK WND 33046/2009 PWINO $





000
SAUS46 KLOX 212040
MTRSDB
SPECI KSDB 212039Z AUTO 36017G39KT 3/4SM HZ OVC003 09/07 A3022 RMK
AO2 PK WND 33046/2009 T00940067 PWINO $





000
SAUS46 KLOX 212036
MTRMWS
METAR KMWS 212030Z 23500G00KT MM/01 RMK SNOW DEPTH 3.00





000
SAUS46 KLOX 212031
MTRSDB
SPECI KSDB 212030Z AUTO 35031G38KT 1SM HZ OVC003 09/07 A3022 RMK AO2
PK WND 33046/2009 VIS 1/2V1 1/2 T00940067 PWINO $





000
SAUS46 KLOX 212026
MTRSDB
SPECI KSDB 212024Z AUTO 36023G41KT 1 3/4SM HZ OVC003 09/06 A3022 RMK
AO2 PK WND 33046/2009 T00940061 PWINO $





000
SAUS46 KLOX 212017
MTRSDB
SPECI KSDB 212016Z AUTO 35031G46KT 4SM HZ OVC003 10/06 A3022 RMK AO2
PK WND 33046/2009 T01000061 PWINO $





000
SAUS46 KLOX 212015
MTRMWS
METAR KMWS 212000Z 22501G02KT 17/02 RMK SNOW DEPTH 3.00





000
SAUS46 KLOX 212003
MTRSDB
SPECI KSDB 212002Z AUTO 35027G39KT 10SM BKN005 11/06 A3022 RMK AO2
PK WND 34041/1952 CIG 003V008 T01060061 PWINO $





000
SAUS46 KLOX 212003
MTRSDB
SPECI KSDB 212002Z AUTO 35027G39KT 10SM BKN005 11/06 A3022 RMK AO2
PK WND 34041/1952 CIG 003V008 T01060061 PWINO $





000
SAUS46 KLOX 211956
MTR9L2
METAR K9L2 211955Z AUTO 00000KT 10SM CLR 09/06 A3014 RMK AO2 SLP213
T00940056 TSNO $





000
SAUS46 KLOX 211956
MTR9L2
METAR K9L2 211955Z AUTO 00000KT 10SM CLR 09/06 A3014 RMK AO2 SLP213
T00940056 TSNO $





000
SAUS46 KLOX 211954
MTRMWS
METAR KMWS 211945Z 35001G08KT 17/02 RMK SNOW DEPTH 3.00





000
SAUS46 KLOX 211954
MTRMWS
METAR KMWS 211945Z 35001G08KT 17/02 RMK SNOW DEPTH 3.00





000
SAUS46 KLOX 211954
MTRLAX
METAR KLAX 211953Z 18003KT 6SM HZ FEW150 SCT200 BKN250 17/12 A3011
RMK AO2 SLP195 T01670122





000
SAUS46 KLOX 211954
MTRLAX
METAR KLAX 211953Z 18003KT 6SM HZ FEW150 SCT200 BKN250 17/12 A3011
RMK AO2 SLP195 T01670122





000
SAUS46 KLOX 211953
MTRSMX
METAR KSMX 211951Z 32011KT 10SM FEW043 20/12 A3021 RMK AO2 SLP230
T02000122 $





000
SAUS46 KLOX 211953
MTRSMX
METAR KSMX 211951Z 32011KT 10SM FEW043 20/12 A3021 RMK AO2 SLP230
T02000122 $





000
SAUS46 KLOX 211949
MTRSDB
METAR KSDB 211948Z AUTO 35039G51KT 10SM SCT005 11/06 A3023 RMK AO2
PK WND 35051/1947 SLP214 T01060061 PWINO $





000
SAUS46 KLOX 211949
MTRSDB
METAR KSDB 211948Z AUTO 35039G51KT 10SM SCT005 11/06 A3023 RMK AO2
PK WND 35051/1947 SLP214 T01060061 PWINO $





000
SAUS46 KLOX 211948
MTRCQT
METAR KCQT 211947Z AUTO 00000KT 6SM HZ CLR 18/11 A3010 RMK AO2
SLP194 T01780106





000
SAUS46 KLOX 211948
MTRCQT
METAR KCQT 211947Z AUTO 00000KT 6SM HZ CLR 18/11 A3010 RMK AO2
SLP194 T01780106





000
SAUS46 KLOX 211936
MTRMWS
METAR KMWS 211930Z 23500G00KT MM/04 RMK SNOW DEPTH 3.00





000
SAUS46 KLOX 211936
MTRMWS
METAR KMWS 211930Z 23500G00KT MM/04 RMK SNOW DEPTH 3.00





000
SAUS46 KLOX 211915
MTRMWS
METAR KMWS 211900Z 12000G02KT 16/04 RMK SNOW DEPTH 3.00





000
SAUS46 KLOX 211856
MTR9L2
METAR K9L2 211855Z AUTO 00000KT 10SM CLR 08/04 A3018 RMK AO2 SLP228
T00780044 TSNO $





000
SAUS46 KLOX 211854
MTRMWS
METAR KMWS 211845Z 28001G02KT 15/04 RMK SNOW DEPTH 3.00





000
SAUS46 KLOX 211854
MTRLAX
METAR KLAX 211853Z 10003KT 5SM HZ FEW150 OVC200 16/11 A3015 RMK AO2
SLP208 T01560111





000
SAUS46 KLOX 211853
MTRSMX
METAR KSMX 211851Z 32010KT 10SM SCT200 19/12 A3024 RMK AO2 SLP241
T01890117 $





000
SAUS46 KLOX 211849
MTRSDB
METAR KSDB 211848Z AUTO 35038G48KT 10SM FEW003 10/06 A3022 RMK AO2
PK WND 35050/1751 SLP208 T01000061 PWINO $





000
SAUS46 KLOX 211848
MTRCQT
METAR KCQT 211847Z AUTO 00000KT 6SM HZ CLR 17/10 A3013 RMK AO2
SLP204 T01670100





000
SAUS46 KLOX 211836
MTRMWS
METAR KMWS 211830Z 23500G00KT MM/04 RMK SNOW DEPTH 3.00





000
SAUS46 KLOX 211815
MTRMWS
METAR KMWS 211800Z 31003G05KT 13/03 RMK SNOW DEPTH 3.00





000
SAUS46 KLOX 211759
MTR9L2
METAR K9L2 211755Z AUTO 08003KT 10SM CLR 07/04 A3019 RMK AO2 SLP233
T00720039 10072 20017 50003 TSNO $





000
SAUS46 KLOX 211754
MTRMWS
METAR KMWS 211745Z 23500G00KT MM/03 RMK SNOW DEPTH 2.00





000
SAUS46 KLOX 211754
MTRLAX
METAR KLAX 211753Z 14003KT 5SM HZ FEW150 BKN200 14/09 A3016 RMK AO2
SLP211 T01440094 10144 20106 51009





000
SAUS46 KLOX 211753
MTRSMX
METAR KSMX 211751Z 31006KT 10SM SCT200 17/11 A3025 RMK AO2 SLP243
T01720106 10172 20117 50005 $





000
SAUS46 KLOX 211749
MTRSDB
METAR KSDB 211748Z AUTO 35041G52KT 10SM SCT004 09/06 A3021 RMK AO2
PK WND 34052/1742 SLP210 T00890056 10089 20067 55005 PWINO $





000
SAUS46 KLOX 211748
MTRCQT
METAR KCQT 211747Z AUTO 09003KT 7SM CLR 16/08 A3015 RMK AO2 SLP209
T01560083 10156 20100 50007





000
SAUS46 KLOX 211736
MTRMWS
METAR KMWS 211730Z 23500G00KT MM/02 RMK SNOW DEPTH 2.00





000
SAUS46 KLOX 211723
MTRSDB
SPECI KSDB 211722Z AUTO 35040G51KT 10SM FEW004 08/05 A3021 RMK AO2
PK WND 35051/1718 T00830050 PWINO $





000
SAUS46 KLOX 211715
MTRMWS
METAR KMWS 211700Z 02502G04KT 13/03 RMK SNOW DEPTH 2.00





000
SAUS46 KLOX 211700
MTR9L2
METAR K9L2 211655Z AUTO 00000KT 7SM CLR 04/03 A3020 RMK AO2 SLP237
T00440028 TSNO $





000
SAUS46 KLOX 211654
MTRMWS
METAR KMWS 211645Z 02504G10KT 12/01 RMK SNOW DEPTH 2.00





000
SAUS46 KLOX 211654
MTRLAX
METAR KLAX 211653Z 11006KT 6SM HZ FEW020 SCT150 OVC200 13/09 A3015
RMK AO2 SLP210 T01280089





000
SAUS46 KLOX 211653
MTRSMX
METAR KSMX 211651Z 32009KT 10SM SCT200 16/11 A3025 RMK AO2 SLP245
T01560106 $





000
SAUS46 KLOX 211649
MTRSDB
METAR KSDB 211648Z AUTO 34039G49KT 10SM CLR 08/04 A3021 RMK AO2 PK
WND 35050/1637 SLP210 T00830044 PWINO $





000
SAUS46 KLOX 211648
MTRCQT
METAR KCQT 211647Z AUTO 00000KT 3SM HZ CLR 13/09 A3015 RMK AO2
SLP210 T01330089





000
SAUS46 KLOX 211636
MTRMWS
METAR KMWS 211630Z 23500G00KT MM/02 RMK SNOW DEPTH 3.00





000
SAUS46 KLOX 211615
MTRMWS
METAR KMWS 211600Z  0507G10KT 11/00 RMK SNOW DEPTH 2.00





000
SAUS46 KLOX 211555
MTR9L2
METAR K9L2 211555Z AUTO 00000KT 4SM BR CLR 03/02 A3020 RMK AO2
SLP238 T00330022 TSNO $





000
SAUS46 KLOX 211554
MTRMWS
METAR KMWS 211545Z  0008G11KT 10/M01 RMK SNOW DEPTH 2.00





000
SAUS46 KLOX 211554
MTRLAX
METAR KLAX 211553Z VRB04KT 5SM HZ FEW150 OVC200 12/08 A3014 RMK AO2
SLP205 T01170083





000
SAUS46 KLOX 211553
MTRSMX
METAR KSMX 211551Z 31010KT 10SM BKN200 14/10 A3024 RMK AO2 SLP244
T01390100 $





000
SAUS46 KLOX 211549
MTRSDB
METAR KSDB 211548Z AUTO 35024G39KT 10SM CLR 08/04 A3022 RMK AO2 PK
WND 35039/1540 SLP213 T00830039 PWINO $





000
SAUS46 KLOX 211548
MTRCQT
METAR KCQT 211547Z AUTO 00000KT 4SM HZ CLR 12/08 A3013 RMK AO2
SLP203 T01170083





000
SAUS46 KLOX 211536
MTRMWS
METAR KMWS 211530Z 23500G00KT MM/00 RMK SNOW DEPTH 2.00





000
SAUS46 KLOX 211515
MTRMWS
METAR KMWS 211500Z  0006G08KT 10/00 RMK SNOW DEPTH 2.00





000
SAUS46 KLOX 211456
MTR9L2
METAR K9L2 211455Z AUTO 00000KT 6SM BR CLR 02/01 A3018 RMK AO2
SLP233 T00220011 53005 FZRANO TSNO $





000
SAUS46 KLOX 211456
MTRSDB
SPECI KSDB 211454Z AUTO 01010G19KT 10SM FEW002 SCT007 07/03 A3023
RMK AO2 T00720033 PWINO $





000
SAUS46 KLOX 211455
MTRLAX
METAR KLAX 211453Z 10003KT 9SM FEW015 SCT200 11/08 A3013 RMK AO2
SLP202 T01110083 51008





000
SAUS46 KLOX 211454
MTRMWS
METAR KMWS 211445Z 03004G06KT 08/00 RMK SNOW DEPTH 2.00





000
SAUS46 KLOX 211453
MTRSMX
METAR KSMX 211451Z 30010KT 10SM SCT200 13/10 A3023 RMK AO2 SLP240
T01330100 53003 $





000
SAUS46 KLOX 211449
MTRSDB
METAR KSDB 211448Z AUTO 03007G21KT 340V080 10SM SCT002 BKN007 BKN013
07/04 A3023 RMK AO2 SLP219 T00720039 53012 PWINO $





000
SAUS46 KLOX 211448
MTRCQT
METAR KCQT 211447Z AUTO 00000KT 5SM BR CLR 10/08 A3013 RMK AO2
SLP202 T01000078 51006





000
SAUS46 KLOX 211437
MTRSDB
SPECI KSDB 211436Z AUTO 06009KT 4SM BR BKN002 OVC007 07/04 A3023 RMK
AO2 T00670044 PWINO $





000
SAUS46 KLOX 211436
MTRSDB
SPECI KSDB 211434Z AUTO 04009KT 1 3/4SM BR BKN002 OVC007 07/04 A3023
RMK AO2 T00670044 PWINO $





000
SAUS46 KLOX 211436
MTRMWS
METAR KMWS 211430Z 23500G00KT MM/01 RMK SNOW DEPTH 2.00





000
SAUS46 KLOX 211417
MTRSDB
SPECI KSDB 211416Z AUTO 06009G20KT 1/2SM FG VV002 07/05 A3023 RMK
AO2 T00670050 PWINO $





000
SAUS46 KLOX 211417
MTRSDB
SPECI KSDB 211416Z AUTO 06009G20KT 1/2SM FG VV002 07/05 A3023 RMK
AO2 T00670050 PWINO $





000
SAUS46 KLOX 211415
MTRMWS
METAR KMWS 211400Z 03008G11KT 07/01 RMK SNOW DEPTH 2.00





000
SAUS46 KLOX 211415
MTRMWS
METAR KMWS 211400Z 03008G11KT 07/01 RMK SNOW DEPTH 2.00





000
SAUS46 KLOX 211359
MTR9L2
METAR K9L2 211355Z AUTO 00000KT 6SM BR CLR 02/01 A3017 RMK AO2
SLP228 T00220011 FZRANO TSNO $





000
SAUS46 KLOX 211359
MTR9L2
METAR K9L2 211355Z AUTO 00000KT 6SM BR CLR 02/01 A3017 RMK AO2
SLP228 T00220011 FZRANO TSNO $





000
SAUS46 KLOX 211354
MTRLAX
METAR KLAX 211353Z 00000KT 8SM FEW015 12/08 A3013 RMK AO2 SLP200
T01170083





000
SAUS46 KLOX 211354
MTRMWS
METAR KMWS 211345Z 03507G09KT 08/01 RMK SNOW DEPTH 2.00





000
SAUS46 KLOX 211354
MTRSDB
SPECI KSDB 211353Z AUTO 01007G20KT 330V040 1/4SM FG VV001 07/05
A3022 RMK AO2 T00670050 PWINO $





000
SAUS46 KLOX 211354
MTRMWS
METAR KMWS 211345Z 03507G09KT 08/01 RMK SNOW DEPTH 2.00





000
SAUS46 KLOX 211354
MTRSDB
SPECI KSDB 211353Z AUTO 01007G20KT 330V040 1/4SM FG VV001 07/05
A3022 RMK AO2 T00670050 PWINO $





000
SAUS46 KLOX 211354
MTRLAX
METAR KLAX 211353Z 00000KT 8SM FEW015 12/08 A3013 RMK AO2 SLP200
T01170083





000
SAUS46 KLOX 211353
MTRSMX
METAR KSMX 211351Z AUTO 30009KT 10SM CLR 13/09 A3022 RMK AO2 SLP237
T01280094 TSNO $





000
SAUS46 KLOX 211353
MTRSMX
METAR KSMX 211351Z AUTO 30009KT 10SM CLR 13/09 A3022 RMK AO2 SLP237
T01280094 TSNO $





000
SAUS46 KLOX 211349
MTRSDB
METAR KSDB 211348Z AUTO 03010G20KT 340V090 1/2SM FG VV001 07/05
A3022 RMK AO2 PK WND 35048/1256 SLP215 T00670050 PWINO $





000
SAUS46 KLOX 211349
MTRSDB
METAR KSDB 211348Z AUTO 03010G20KT 340V090 1/2SM FG VV001 07/05
A3022 RMK AO2 PK WND 35048/1256 SLP215 T00670050 PWINO $





000
SAUS46 KLOX 211348
MTRCQT
METAR KCQT 211347Z AUTO 00000KT 5SM BR CLR 10/08 A3012 RMK AO2
SLP200 T01000078





000
SAUS46 KLOX 211348
MTRCQT
METAR KCQT 211347Z AUTO 00000KT 5SM BR CLR 10/08 A3012 RMK AO2
SLP200 T01000078





000
SAUS46 KLOX 211336
MTRMWS
METAR KMWS 211330Z 23500G00KT MM/02 RMK SNOW DEPTH 2.00





000
SAUS46 KLOX 211336
MTRMWS
METAR KMWS 211330Z 23500G00KT MM/02 RMK SNOW DEPTH 2.00





000
SAUS46 KLOX 211331
MTRSDB
SPECI KSDB 211329Z AUTO 35027G45KT 1/4SM FG BKN001 BKN005 07/05
A3019 RMK AO2 PK WND 35048/1256 VIS M1/4V5 PRESRR T00720050 PWINO $





000
SAUS46 KLOX 211331
MTRSDB
SPECI KSDB 211329Z AUTO 35027G45KT 1/4SM FG BKN001 BKN005 07/05
A3019 RMK AO2 PK WND 35048/1256 VIS M1/4V5 PRESRR T00720050 PWINO $





000
SAUS46 KLOX 211326
MTRSDB
SPECI KSDB 211325Z AUTO 35034G45KT 1SM HZ BKN001 BKN005 07/04 A3019
RMK AO2 PK WND 35048/1256 VIS 1/4V5 PRESRR T00720044 PWINO $





000
SAUS46 KLOX 211326
MTRSDB
SPECI KSDB 211325Z AUTO 35034G45KT 1SM HZ BKN001 BKN005 07/04 A3019
RMK AO2 PK WND 35048/1256 VIS 1/4V5 PRESRR T00720044 PWINO $





000
SAUS46 KLOX 211323
MTRSDB
SPECI KSDB 211322Z AUTO 35035G45KT 2SM HZ BKN001 BKN005 07/04 A3018
RMK AO2 PK WND 35048/1256 VIS 3/4V5 T00720044 PWINO $





000
SAUS46 KLOX 211323
MTRSDB
SPECI KSDB 211322Z AUTO 35035G45KT 2SM HZ BKN001 BKN005 07/04 A3018
RMK AO2 PK WND 35048/1256 VIS 3/4V5 T00720044 PWINO $





000
SAUS46 KLOX 211321
MTRSDB
SPECI KSDB 211320Z AUTO 35033G46KT 3/4SM HZ VV001 07/04 A3018 RMK
AO2 PK WND 35048/1256 VIS 1/4V5 T00720044 PWINO $





000
SAUS46 KLOX 211321
MTRSDB
SPECI KSDB 211320Z AUTO 35033G46KT 3/4SM HZ VV001 07/04 A3018 RMK
AO2 PK WND 35048/1256 VIS 1/4V5 T00720044 PWINO $





000
SAUS46 KLOX 211315
MTRMWS
METAR KMWS 211300Z 04007G09KT 07/02 RMK SNOW DEPTH 2.00





000
SAUS46 KLOX 211315
MTRMWS
METAR KMWS 211300Z 04007G09KT 07/02 RMK SNOW DEPTH 2.00





000
SAUS46 KLOX 211314
MTRSDB
SPECI KSDB 211313Z AUTO 35039G47KT 1/4SM HZ BKN001 BKN005 07/04
A3016 RMK AO2 PK WND 35048/1256 T00720044 PWINO $





000
SAUS46 KLOX 211314
MTRSDB
SPECI KSDB 211313Z AUTO 35039G47KT 1/4SM HZ BKN001 BKN005 07/04
A3016 RMK AO2 PK WND 35048/1256 T00720044 PWINO $





000
SAUS46 KLOX 211308
MTRSDB
SPECI KSDB 211307Z AUTO 35036G48KT 3/4SM HZ BKN002 BKN007 07/04
A3016 RMK AO2 PK WND 35048/1256 VIS 1/4V5 T00720044 PWINO $





000
SAUS46 KLOX 211308
MTRSDB
SPECI KSDB 211307Z AUTO 35036G48KT 3/4SM HZ BKN002 BKN007 07/04
A3016 RMK AO2 PK WND 35048/1256 VIS 1/4V5 T00720044 PWINO $





000
SAUS46 KLOX 211302
MTRSDB
SPECI KSDB 211301Z AUTO 35037G48KT 1 1/2SM HZ BKN002 BKN007 07/04
A3016 RMK AO2 PK WND 35048/1256 VIS 1/2V5 PRESFR T00720044 PWINO $





000
SAUS46 KLOX 211256
MTR9L2
METAR K9L2 211255Z AUTO 31003KT 5SM BR CLR 02/01 A3017 RMK AO2
SLP229 T00220011 FZRANO TSNO $





000
SAUS46 KLOX 211256
MTR9L2
METAR K9L2 211255Z AUTO 31003KT 5SM BR CLR 02/01 A3017 RMK AO2
SLP229 T00220011 FZRANO TSNO $





000
SAUS46 KLOX 211254
MTRMWS
METAR KMWS 211245Z 04007G12KT 07/02 RMK SNOW DEPTH 1.00





000
SAUS46 KLOX 211254
MTRMWS
METAR KMWS 211245Z 04007G12KT 07/02 RMK SNOW DEPTH 1.00





000
SAUS46 KLOX 211254
MTRLAX
METAR KLAX 211253Z 05005KT 8SM SCT015 12/08 A3013 RMK AO2 SLP200 SCT
V BKN T01220083





000
SAUS46 KLOX 211254
MTRLAX
METAR KLAX 211253Z 05005KT 8SM SCT015 12/08 A3013 RMK AO2 SLP200 SCT
V BKN T01220083





000
SAUS46 KLOX 211253
MTRSMX
METAR KSMX 211251Z AUTO 32010KT 10SM CLR 13/10 A3022 RMK AO2 SLP237
T01330100 TSNO $





000
SAUS46 KLOX 211253
MTRSMX
METAR KSMX 211251Z AUTO 32010KT 10SM CLR 13/10 A3022 RMK AO2 SLP237
T01330100 TSNO $





000
SAUS46 KLOX 211249
MTRSDB
METAR KSDB 211248Z AUTO 35028G38KT 9SM BKN002 BKN007 07/04 A3018 RMK
AO2 PK WND 35038/1248 SLP199 T00720039 PWINO $





000
SAUS46 KLOX 211249
MTRSDB
METAR KSDB 211248Z AUTO 35028G38KT 9SM BKN002 BKN007 07/04 A3018 RMK
AO2 PK WND 35038/1248 SLP199 T00720039 PWINO $





000
SAUS46 KLOX 211248
MTRCQT
METAR KCQT 211247Z AUTO 00000KT 6SM HZ CLR 11/08 A3012 RMK AO2
SLP199 T01110078





000
SAUS46 KLOX 211248
MTRCQT
METAR KCQT 211247Z AUTO 00000KT 6SM HZ CLR 11/08 A3012 RMK AO2
SLP199 T01110078





000
SAUS46 KLOX 211247
MTRSDB
SPECI KSDB 211246Z AUTO 36020G38KT 7SM BKN002 BKN007 07/04 A3019 RMK
AO2 PK WND 36038/1246 PWINO $





000
SAUS46 KLOX 211247
MTRSDB
SPECI KSDB 211246Z AUTO 36020G38KT 7SM BKN002 BKN007 07/04 A3019 RMK
AO2 PK WND 36038/1246 PWINO $





000
SAUS46 KLOX 211243
MTRSDB
SPECI KSDB 211242Z AUTO 01014G31KT 1 1/2SM HZ BKN002 BKN007 07/04
A3020 RMK AO2 PK WND 35036/1207 T00720044 PWINO $





000
SAUS46 KLOX 211243
MTRSDB
SPECI KSDB 211242Z AUTO 01014G31KT 1 1/2SM HZ BKN002 BKN007 07/04
A3020 RMK AO2 PK WND 35036/1207 T00720044 PWINO $





000
SAUS46 KLOX 211236
MTRSDB
SPECI KSDB 211235Z AUTO 01012G34KT 340V080 3/4SM HZ VV002 07/04
A3019 RMK AO2 PK WND 35036/1207 VIS 1/4V4 T00720044 PWINO $





000
SAUS46 KLOX 211236
MTRMWS
METAR KMWS 211230Z 23500G00KT MM/01 RMK SNOW DEPTH 2.00





000
SAUS46 KLOX 211236
MTRMWS
METAR KMWS 211230Z 23500G00KT MM/01 RMK SNOW DEPTH 2.00





000
SAUS46 KLOX 211236
MTRSDB
SPECI KSDB 211235Z AUTO 01012G34KT 340V080 3/4SM HZ VV002 07/04
A3019 RMK AO2 PK WND 35036/1207 VIS 1/4V4 T00720044 PWINO $





000
SAUS46 KLOX 211231
MTRSDB
SPECI KSDB 211230Z AUTO 36017G34KT 1SM HZ VV002 07/04 A3019 RMK AO2
PK WND 35036/1207 VIS 1/4V5 T00720044 PWINO $





000
SAUS46 KLOX 211231
MTRSDB
SPECI KSDB 211230Z AUTO 36017G34KT 1SM HZ VV002 07/04 A3019 RMK AO2
PK WND 35036/1207 VIS 1/4V5 T00720044 PWINO $





000
SAUS46 KLOX 211229
MTRSDB
SPECI KSDB 211228Z AUTO 36022G34KT 2 1/2SM HZ BKN002 07/04 A3019 RMK
AO2 PK WND 35036/1207 VIS 1V5 T00720044 PWINO $





000
SAUS46 KLOX 211229
MTRSDB
SPECI KSDB 211228Z AUTO 36022G34KT 2 1/2SM HZ BKN002 07/04 A3019 RMK
AO2 PK WND 35036/1207 VIS 1V5 T00720044 PWINO $





000
SAUS46 KLOX 211215
MTRMWS
METAR KMWS 211200Z 32002G06KT 06/02 RMK SNOW DEPTH 1.00





000
SAUS46 KLOX 211159
MTR9L2
METAR K9L2 211155Z AUTO 33004KT 4SM BR CLR 02/01 A3017 RMK AO2
SLP225 T00220011 10056 20017 58007 FZRANO TSNO $





000
SAUS46 KLOX 211159
MTR9L2
METAR K9L2 211155Z AUTO 33004KT 4SM BR CLR 02/01 A3017 RMK AO2
SLP225 T00220011 10056 20017 58007 FZRANO TSNO $





000
SAUS46 KLOX 211157
MTRSDB
SPECI KSDB 211155Z AUTO 02010G19KT 10SM SCT002 07/04 A3019 RMK AO2
T00720044 PWINO $





000
SAUS46 KLOX 211157
MTRSDB
SPECI KSDB 211155Z AUTO 02010G19KT 10SM SCT002 07/04 A3019 RMK AO2
T00720044 PWINO $





000
SAUS46 KLOX 211154
MTRMWS
METAR KMWS 211145Z  0502G05KT 08/03 RMK SNOW DEPTH 1.00





000
SAUS46 KLOX 211154
MTRMWS
METAR KMWS 211145Z  0502G05KT 08/03 RMK SNOW DEPTH 1.00





000
SAUS46 KLOX 211154
MTRLAX
METAR KLAX 211153Z 11004KT 9SM CLR 12/08 A3011 RMK AO2 SLP194
T01170083 10144 20111 58012





000
SAUS46 KLOX 211154
MTRLAX
METAR KLAX 211153Z 11004KT 9SM CLR 12/08 A3011 RMK AO2 SLP194
T01170083 10144 20111 58012





000
SAUS46 KLOX 211153
MTRSMX
METAR KSMX 211151Z AUTO 32008KT 7SM CLR 13/10 A3022 RMK AO2 SLP236
T01330100 10156 20128 55005 TSNO $





000
SAUS46 KLOX 211153
MTRSMX
METAR KSMX 211151Z AUTO 32008KT 7SM CLR 13/10 A3022 RMK AO2 SLP236
T01330100 10156 20128 55005 TSNO $





000
SAUS46 KLOX 211149
MTRSDB
METAR KSDB 211148Z AUTO 01010G27KT 8SM BKN002 BKN006 07/04 A3019 RMK
AO2 PK WND 36034/1051 SLP200 60001 70003 T00720044 10083 20067 55014
PWINO $





000
SAUS46 KLOX 211148
MTRCQT
METAR KCQT 211147Z AUTO 00000KT 6SM HZ CLR 11/08 A3011 RMK AO2
SLP195 T01110083 10144 20111 58010





000
SAUS46 KLOX 211143
MTRSDB
SPECI KSDB 211142Z AUTO 01012G27KT 2SM BR BKN002 OVC006 07/04 A3019
RMK AO2 PK WND 36034/1051 T00670044 PWINO $





000
SAUS46 KLOX 211136
MTRMWS
METAR KMWS 211130Z 23500G00KT MM/02 RMK SNOW DEPTH 2.00





000
SAUS46 KLOX 211133
MTRSDB
SPECI KSDB 211132Z AUTO 01008G22KT 330V060 1SM BR OVC002 07/05 A3020
RMK AO2 PK WND 36034/1051 VIS 1/2V3 T00670050 PWINO $





000
SAUS46 KLOX 211120
MTRSDB
SPECI KSDB 211119Z AUTO 3/4SM BR BKN002 OVC007 07/05 A3020 RMK AO2
PK WND 36034/1051 T00720050 PWINO $





000
SAUS46 KLOX 211116
MTRSDB
SPECI KSDB 211114Z AUTO 02008G18KT 1 3/4SM BR BKN002 OVC007 07/05
A3020 RMK AO2 PK WND 36034/1051 VIS 1/2V5 T00720050 PWINO $





000
SAUS46 KLOX 211115
MTRMWS
METAR KMWS 211100Z 36003G07KT 08/03 RMK SNOW DEPTH 1.00





000
SAUS46 KLOX 211107
MTRSDB
SPECI KSDB 211106Z AUTO 01007G30KT 330V080 6SM BR BKN002 BKN007
07/05 A3020 RMK AO2 PK WND 36034/1051 T00720050 PWINO $





000
SAUS46 KLOX 211107
MTRSDB
SPECI KSDB 211106Z AUTO 01007G30KT 330V080 6SM BR BKN002 BKN007
07/05 A3020 RMK AO2 PK WND 36034/1051 T00720050 PWINO $





000
SAUS46 KLOX 211103
MTRSDB
SPECI KSDB 211102Z AUTO 01009G30KT 2SM BR BKN003 BKN007 07/05 A3020
RMK AO2 PK WND 36034/1051 T00720050 PWINO $





000
SAUS46 KLOX 211103
MTRSDB
SPECI KSDB 211102Z AUTO 01009G30KT 2SM BR BKN003 BKN007 07/05 A3020
RMK AO2 PK WND 36034/1051 T00720050 PWINO $





000
SAUS46 KLOX 211056
MTR9L2
METAR K9L2 211055Z AUTO 00000KT 4SM BR CLR 02/01 A3017 RMK AO2
SLP228 T00220011 FZRANO TSNO $





000
SAUS46 KLOX 211056
MTR9L2
METAR K9L2 211055Z AUTO 00000KT 4SM BR CLR 02/01 A3017 RMK AO2
SLP228 T00220011 FZRANO TSNO $





000
SAUS46 KLOX 211054
MTRMWS
METAR KMWS 211045Z 02510G17KT 07/02 RMK SNOW DEPTH 2.00





000
SAUS46 KLOX 211054
MTRSDB
SPECI KSDB 211052Z AUTO 35024G36KT 1 1/4SM BR BKN003 07/05 A3020 RMK
AO2 PK WND 36034/1051 VIS 1/2V5 T00720050 PWINO $





000
SAUS46 KLOX 211054
MTRLAX
METAR KLAX 211053Z 06006KT 9SM CLR 12/08 A3013 RMK AO2 SLP201
T01220083





000
SAUS46 KLOX 211054
MTRSDB
SPECI KSDB 211052Z AUTO 35024G36KT 1 1/4SM BR BKN003 07/05 A3020 RMK
AO2 PK WND 36034/1051 VIS 1/2V5 T00720050 PWINO $





000
SAUS46 KLOX 211054
MTRLAX
METAR KLAX 211053Z 06006KT 9SM CLR 12/08 A3013 RMK AO2 SLP201
T01220083





000
SAUS46 KLOX 211054
MTRMWS
METAR KMWS 211045Z 02510G17KT 07/02 RMK SNOW DEPTH 2.00





000
SAUS46 KLOX 211052
MTRSMX
METAR KSMX 211051Z AUTO 30009KT 10SM CLR 14/10 A3021 RMK AO2 SLP233
T01390100 TSNO $





000
SAUS46 KLOX 211052
MTRSMX
METAR KSMX 211051Z AUTO 30009KT 10SM CLR 14/10 A3021 RMK AO2 SLP233
T01390100 TSNO $





000
SAUS46 KLOX 211049
MTRSDB
METAR KSDB 211048Z AUTO 35023G36KT 2SM BR BKN003 BKN007 07/05 A3020
RMK AO2 PK WND 35036/1043 VIS 3/4V5 SLP204 T00720050 PWINO $





000
SAUS46 KLOX 211049
MTRSDB
METAR KSDB 211048Z AUTO 35023G36KT 2SM BR BKN003 BKN007 07/05 A3020
RMK AO2 PK WND 35036/1043 VIS 3/4V5 SLP204 T00720050 PWINO $





000
SAUS46 KLOX 211048
MTRCQT
METAR KCQT 211047Z AUTO 00000KT 7SM CLR 13/08 A3013 RMK AO2 SLP203
T01280083





000
SAUS46 KLOX 211048
MTRCQT
METAR KCQT 211047Z AUTO 00000KT 7SM CLR 13/08 A3013 RMK AO2 SLP203
T01280083





000
SAUS46 KLOX 211036
MTRMWS
METAR KMWS 211030Z 23500G00KT MM/03 RMK SNOW DEPTH 1.00





000
SAUS46 KLOX 211036
MTRMWS
METAR KMWS 211030Z 23500G00KT MM/03 RMK SNOW DEPTH 1.00





000
SAUS46 KLOX 211020
MTRSDB
SPECI KSDB 211019Z AUTO 36021G36KT 5SM BR BKN004 07/05 A3020 RMK AO2
PK WND 35036/1017 T00720050 PWINO $





000
SAUS46 KLOX 211020
MTRSDB
SPECI KSDB 211019Z AUTO 36021G36KT 5SM BR BKN004 07/05 A3020 RMK AO2
PK WND 35036/1017 T00720050 PWINO $





000
SAUS46 KLOX 211015
MTRSDB
SPECI KSDB 211014Z AUTO 36017G32KT 2 1/2SM BR BKN004 07/05 A3021 RMK
AO2 PK WND 35034/0958 T00720050 PWINO $





000
SAUS46 KLOX 211015
MTRMWS
METAR KMWS 211000Z 34504G09KT 06/02 RMK SNOW DEPTH 1.00





000
SAUS46 KLOX 211015
MTRMWS
METAR KMWS 211000Z 34504G09KT 06/02 RMK SNOW DEPTH 1.00





000
SAUS46 KLOX 211015
MTRSDB
SPECI KSDB 211014Z AUTO 36017G32KT 2 1/2SM BR BKN004 07/05 A3021 RMK
AO2 PK WND 35034/0958 T00720050 PWINO $





000
SAUS46 KLOX 210956
MTR9L2
METAR K9L2 210955Z AUTO 00000KT 5SM BR CLR 02/01 A3019 RMK AO2
SLP235 T00220011 FZRANO TSNO $





000
SAUS46 KLOX 210956
MTR9L2
METAR K9L2 210955Z AUTO 00000KT 5SM BR CLR 02/01 A3019 RMK AO2
SLP235 T00220011 FZRANO TSNO $





000
SAUS46 KLOX 210954
MTRMWS
METAR KMWS 210945Z 01504G10KT 07/03 RMK SNOW DEPTH 1.00





000
SAUS46 KLOX 210954
MTRMWS
METAR KMWS 210945Z 01504G10KT 07/03 RMK SNOW DEPTH 1.00





000
SAUS46 KLOX 210954
MTRLAX
METAR KLAX 210953Z 08005KT 10SM FEW016 13/09 A3014 RMK AO2 SLP204
T01280089





000
SAUS46 KLOX 210954
MTRLAX
METAR KLAX 210953Z 08005KT 10SM FEW016 13/09 A3014 RMK AO2 SLP204
T01280089





000
SAUS46 KLOX 210952
MTRSMX
METAR KSMX 210951Z AUTO 35011KT 10SM CLR 15/11 A3023 RMK AO2 SLP236
T01500106 TSNO $





000
SAUS46 KLOX 210952
MTRSMX
METAR KSMX 210951Z AUTO 35011KT 10SM CLR 15/11 A3023 RMK AO2 SLP236
T01500106 TSNO $





000
SAUS46 KLOX 210952
MTRSMX
METAR KSMX 210951Z AUTO 35011KT 10SM CLR 15/11 A3023 RMK AO2 SLP236
T01500106 TSNO $





000
SAUS46 KLOX 210949
MTRSDB
METAR KSDB 210948Z AUTO 03008G17KT 340V060 7SM BKN004 OVC008 07/06
A3023 RMK AO2 PK WND 33048/0854 SLP218 T00720056 PWINO $





000
SAUS46 KLOX 210949
MTRSDB
METAR KSDB 210948Z AUTO 03008G17KT 340V060 7SM BKN004 OVC008 07/06
A3023 RMK AO2 PK WND 33048/0854 SLP218 T00720056 PWINO $





000
SAUS46 KLOX 210948
MTRCQT
METAR KCQT 210947Z AUTO 06003KT 7SM CLR 13/08 A3014 RMK AO2 SLP204
T01330083





000
SAUS46 KLOX 210948
MTRCQT
METAR KCQT 210947Z AUTO 06003KT 7SM CLR 13/08 A3014 RMK AO2 SLP204
T01330083





000
SAUS46 KLOX 210944
MTRSDB
SPECI KSDB 210942Z AUTO 03007G17KT 350V080 7SM BKN002 OVC006 07/06
A3024 RMK AO2 PK WND 33048/0854 T00720061 PWINO $





000
SAUS46 KLOX 210940
MTRSDB
SPECI KSDB 210938Z AUTO 02009G18KT 340V060 1 3/4SM BR OVC002 07/06
A3024 RMK AO2 PK WND 33048/0854 T00720061 PWINO $





000
SAUS46 KLOX 210936
MTRMWS
METAR KMWS 210930Z 23500G00KT MM/03 RMK SNOW DEPTH 1.00





000
SAUS46 KLOX 210928
MTRSDB
SPECI KSDB 210927Z AUTO 36016G38KT 340V040 3/4SM BR VV002 08/06
A3022 RMK AO2 PK WND 33048/0854 VIS 1/4V5 PRESRR T00780061 PWINO $





000
SAUS46 KLOX 210926
MTRSDB
SPECI KSDB 210925Z AUTO 36013G40KT 210V050 1 1/4SM BR OVC001 08/06
A3022 RMK AO2 PK WND 33048/0854 VIS 1/2V5 PRESRR T00780056 PWINO $





000
SAUS46 KLOX 210916
MTRSDB
SPECI KSDB 210915Z AUTO 34029G46KT 2SM BR OVC001 08/06 A3020 RMK AO2
PK WND 33048/0854 T00780056 PWINO $





000
SAUS46 KLOX 210915
MTRMWS
METAR KMWS 210900Z 02502G08KT 06/03 RMK SNOW DEPTH 1.00





000
SAUS46 KLOX 210913
MTRSDB
SPECI KSDB 210912Z AUTO 34035G46KT 1SM BR VV001 08/06 A3019 RMK AO2
PK WND 33048/0854 T00780056 PWINO $





000
SAUS46 KLOX 210856
MTR9L2
METAR K9L2 210855Z AUTO 00000KT 5SM BR CLR 04/03 A3019 RMK AO2
SLP234 T00390028 50003 TSNO $





000
SAUS46 KLOX 210855
MTRLAX
METAR KLAX 210853Z VRB06KT 9SM FEW016 14/09 A3014 RMK AO2 SLP206
T01440089 58002





000
SAUS46 KLOX 210854
MTRMWS
METAR KMWS 210845Z 01005G11KT 06/03 RMK SNOW DEPTH 1.00





000
SAUS46 KLOX 210852
MTRSMX
METAR KSMX 210851Z AUTO 34011KT 10SM CLR 15/11 A3024 RMK AO2 SLP240
T01500111 58001 TSNO $





000
SAUS46 KLOX 210850
MTRSDB
METAR KSDB 210848Z AUTO 35038G48KT 1/4SM FG VV001 08/06 A3018 RMK
AO2 PK WND 33053/0810 SLP198 60001 T00780061 58006 PWINO $





000
SAUS46 KLOX 210848
MTRCQT
METAR KCQT 210847Z AUTO 00000KT 6SM HZ CLR 12/09 A3014 RMK AO2
SLP205 T01170089 58002





000
SAUS46 KLOX 210836
MTRMWS
METAR KMWS 210830Z 23500G00KT MM/03 RMK SNOW DEPTH  M





000
SAUS46 KLOX 210831
MTRSDB
SPECI KSDB 210830Z AUTO 33035G45KT 3/4SM BR VV002 08/06 A3019 RMK
AO2 PK WND 33053/0810 T00780061 PWINO $





000
SAUS46 KLOX 210824
MTRSDB
SPECI KSDB 210823Z AUTO 34034G47KT 1/4SM FG VV002 08/06 A3019 RMK
AO2 PK WND 33053/0810 T00780061 PWINO $





000
SAUS46 KLOX 210820 COR
MTRSDB
SPECI KSDB 210816Z AUTO 34038G53KT 3/4SM BR VV002 08/06 A3019 RMK
AO2 PK WND 33053/0810 T00830061 PWINO $





000
SAUS46 KLOX 210815
MTRMWS
METAR KMWS 210800Z 26501G02KT 04/04 RMK SNOW DEPTH  M





000
SAUS46 KLOX 210813
MTRSDB
SPECI KSDB 210812Z AUTO 34039G53KT 1 1/2SM BR OVC002 08/06 A3017 RMK
AO2 PK WND 33053/0810 T00780056 PWINO $





000
SAUS46 KLOX 210811
MTRSDB
SPECI KSDB 210809Z AUTO 34044G51KT 3/4SM BR VV002 08/06 A3017 RMK
AO2 PK WND 34051/0809 T00780056





000
SAUS46 KLOX 210759
MTR9L2
METAR K9L2 210755Z AUTO 00000KT 9SM CLR 04/03 A3019 RMK AO2 SLP234
T00440028 401280028 TSNO $





000
SAUS46 KLOX 210756
MTRSDB
SPECI KSDB 210755Z AUTO 34035G45KT 1/4SM FG VV002 08/06 A3019 RMK
AO2 PK WND 34045/0752 T00780061





000
SAUS46 KLOX 210754
MTRMWS
METAR KMWS 210745Z 25501G04KT 03/04 RMK SNOW DEPTH  M





000
SAUS46 KLOX 210754
MTRLAX
METAR KLAX 210753Z VRB04KT 10SM FEW017 SCT200 14/09 A3015 RMK AO2
SLP209 T01390089 401670100





000
SAUS46 KLOX 210753
MTRSMX
METAR KSMX 210751Z AUTO 34009KT 10SM CLR 15/11 A3024 RMK AO2 SLP242
T01500111 401940111 TSNO $





000
SAUS46 KLOX 210749
MTRSDB
METAR KSDB 210748Z AUTO 34032G42KT 1/4SM FG VV001 08/06 A3019 RMK
AO2 PK WND 34042/0748 RAE41 SLP201 P0000 T00780061 401110067





000
SAUS46 KLOX 210748
MTRCQT
METAR KCQT 210747Z AUTO 00000KT 8SM CLR 13/08 A3015 RMK AO2 SLP210
T01330083 401780100





000
SAUS46 KLOX 210736
MTRMWS
METAR KMWS 210730Z 23500G00KT MM/04 RMK SNOW DEPTH  M





000
SAUS46 KLOX 210715
MTRMWS
METAR KMWS 210700Z 01002G03KT 03/04 RMK SNOW DEPTH  M





000
SAUS46 KLOX 210656
MTR9L2
METAR K9L2 210655Z AUTO 31003KT 9SM CLR 05/03 A3019 RMK AO2 SLP236
T00500028 TSNO $





000
SAUS46 KLOX 210654
MTRMWS
METAR KMWS 210645Z 36002G03KT 03/04 RMK SNOW DEPTH  M





000
SAUS46 KLOX 210654
MTRLAX
METAR KLAX 210653Z 07005KT 10SM SCT017 SCT200 14/09 A3016 RMK AO2
SLP211 T01390094





000
SAUS46 KLOX 210653
MTRSMX
METAR KSMX 210651Z AUTO 30006KT 10SM CLR 14/11 A3024 RMK AO2 SLP242
T01390111 TSNO $





000
SAUS46 KLOX 210653
MTRSMX
METAR KSMX 210651Z AUTO 30006KT 10SM CLR 14/11 A3024 RMK AO2 SLP242
T01390111 TSNO $





000
SAUS46 KLOX 210649
MTRSDB
METAR KSDB 210648Z AUTO 35033G42KT 1/4SM -RA FG VV001 08/06 A3020
RMK AO2 PK WND 34042/0646 SLP202 P0001 T00830061





000
SAUS46 KLOX 210649
MTRSDB
METAR KSDB 210648Z AUTO 35033G42KT 1/4SM -RA FG VV001 08/06 A3020
RMK AO2 PK WND 34042/0646 SLP202 P0001 T00830061





000
SAUS46 KLOX 210648
MTRCQT
METAR KCQT 210647Z AUTO VRB03KT 9SM CLR 14/08 A3015 RMK AO2 SLP209
T01440083





000
SAUS46 KLOX 210648
MTRCQT
METAR KCQT 210647Z AUTO VRB03KT 9SM CLR 14/08 A3015 RMK AO2 SLP209
T01440083





000
SAUS46 KLOX 210636
MTRMWS
METAR KMWS 210630Z 13000G03KT 03/04 RMK SNOW DEPTH  M





000
SAUS46 KLOX 210636
MTRMWS
METAR KMWS 210630Z 13000G03KT 03/04 RMK SNOW DEPTH  M





000
SAUS46 KLOX 210615
MTRMWS
METAR KMWS 210600Z 32505G07KT 05/05 RMK SNOW DEPTH  M





000
SAUS46 KLOX 210556
MTR9L2
METAR K9L2 210555Z AUTO 31005KT 9SM CLR 06/03 A3018 RMK AO2 SLP232
T00560033 10128 20056 51018 TSNO $





000
SAUS46 KLOX 210555
MTRLAX
METAR KLAX 210553Z 00000KT 7SM SCT015 BKN200 14/10 A3015 RMK AO2
SLP207 T01440100 10161 20139 56001





000
SAUS46 KLOX 210554
MTRMWS
METAR KMWS 210545Z 34002G05KT 03/04 RMK SNOW DEPTH 1.00





000
SAUS46 KLOX 210553
MTRSMX
METAR KSMX 210551Z AUTO 32005KT 7SM CLR 15/12 A3024 RMK AO2 SLP241
T01500122 10172 20144 53009 TSNO $





000
SAUS46 KLOX 210549
MTRSDB
METAR KSDB 210548Z AUTO 35029G38KT 1/4SM -RA FG VV001 08/07 A3020
RMK AO2 PK WND 34040/0530 RAB0458 SLP201 P0000 60002 T00830067 10089
20083 50008





000
SAUS46 KLOX 210548
MTRCQT
METAR KCQT 210547Z AUTO 00000KT 9SM CLR 14/09 A3014 RMK AO2 SLP207
T01440089 10167 20144 56001





000
SAUS46 KLOX 210536
MTRMWS
METAR KMWS 210530Z 23500G00KT MM/04 RMK SNOW DEPTH 1.00





000
SAUS46 KLOX 210533
MTRLAX
SPECI KLAX 210531Z 09005KT 7SM SCT015 BKN200 14/11 A3014 RMK AO2





000
SAUS46 KLOX 210515
MTRMWS
METAR KMWS 210500Z 31003G07KT 05/04 RMK SNOW DEPTH 1.00





000
SAUS46 KLOX 210458
MTRSDB
SPECI KSDB 210457Z AUTO 35026G37KT 1/4SM FG VV001 08/07 A3020 RMK
AO2 PK WND 35037/0452 T00830067





000
SAUS46 KLOX 210458
MTRSDB
SPECI KSDB 210457Z AUTO 35026G37KT 1/4SM FG VV001 08/07 A3020 RMK
AO2 PK WND 35037/0452 T00830067





000
SAUS46 KLOX 210456
MTR9L2
METAR K9L2 210455Z AUTO 35005KT 10SM CLR 06/04 A3017 RMK AO2 SLP226
T00610039 TSNO $





000
SAUS46 KLOX 210456
MTR9L2
METAR K9L2 210455Z AUTO 35005KT 10SM CLR 06/04 A3017 RMK AO2 SLP226
T00610039 TSNO $





000
SAUS46 KLOX 210454
MTRLAX
METAR KLAX 210453Z 09006KT 7SM BKN015 BKN120 BKN200 14/11 A3015 RMK
AO2 SLP208 T01390106





000
SAUS46 KLOX 210454
MTRMWS
METAR KMWS 210445Z 23500G00KT MM/03 RMK SNOW DEPTH 1.00





000
SAUS46 KLOX 210454
MTRLAX
METAR KLAX 210453Z 09006KT 7SM BKN015 BKN120 BKN200 14/11 A3015 RMK
AO2 SLP208 T01390106





000
SAUS46 KLOX 210454
MTRMWS
METAR KMWS 210445Z 23500G00KT MM/03 RMK SNOW DEPTH 1.00





000
SAUS46 KLOX 210453
MTRSMX
METAR KSMX 210451Z AUTO 31008KT 6SM HZ FEW041 15/12 A3023 RMK AO2
SLP238 T01500122 TSNO $





000
SAUS46 KLOX 210453
MTRSMX
METAR KSMX 210451Z AUTO 31008KT 6SM HZ FEW041 15/12 A3023 RMK AO2
SLP238 T01500122 TSNO $





000
SAUS46 KLOX 210449
MTRSDB
METAR KSDB 210448Z AUTO 34029G37KT 1/4SM FG VV002 08/07 A3020 RMK
AO2 PK WND 33046/0349 RAE44 SLP204 P0000 T00830067





000
SAUS46 KLOX 210449
MTRSDB
METAR KSDB 210448Z AUTO 34029G37KT 1/4SM FG VV002 08/07 A3020 RMK
AO2 PK WND 33046/0349 RAE44 SLP204 P0000 T00830067





000
SAUS46 KLOX 210448
MTRCQT
METAR KCQT 210447Z AUTO 08003KT 8SM CLR 14/09 A3015 RMK AO2 SLP208
T01440089





000
SAUS46 KLOX 210448
MTRCQT
METAR KCQT 210447Z AUTO 08003KT 8SM CLR 14/09 A3015 RMK AO2 SLP208
T01440089





000
SAUS46 KLOX 210436
MTRMWS
METAR KMWS 210430Z 23500G00KT MM/03 RMK SNOW DEPTH 1.00





000
SAUS46 KLOX 210436
MTRMWS
METAR KMWS 210430Z 23500G00KT MM/03 RMK SNOW DEPTH 1.00





000
SAUS46 KLOX 210427
MTRSDB
SPECI KSDB 210426Z AUTO 34029G38KT 1/4SM -RA FG VV002 08/07 A3020
RMK AO2 PK WND 33046/0349 P0000 T00830067





000
SAUS46 KLOX 210427
MTRSDB
SPECI KSDB 210426Z AUTO 34029G38KT 1/4SM -RA FG VV002 08/07 A3020
RMK AO2 PK WND 33046/0349 P0000 T00830067





000
SAUS46 KLOX 210425
MTRCQT
SPECI KCQT 210424Z AUTO 00000KT 8SM SCT021 15/09 A3015 RMK AO2
T01500089





000
SAUS46 KLOX 210425
MTRCQT
SPECI KCQT 210424Z AUTO 00000KT 8SM SCT021 15/09 A3015 RMK AO2
T01500089





000
SAUS46 KLOX 210418
MTRCQT
SPECI KCQT 210417Z AUTO VRB03KT 8SM BKN020 15/09 A3015 RMK AO2
T01500089





000
SAUS46 KLOX 210418
MTRCQT
SPECI KCQT 210417Z AUTO VRB03KT 8SM BKN020 15/09 A3015 RMK AO2
T01500089





000
SAUS46 KLOX 210415
MTRMWS
METAR KMWS 210400Z 29004G07KT 05/05 RMK SNOW DEPTH 1.00





000
SAUS46 KLOX 210415
MTRMWS
METAR KMWS 210400Z 29004G07KT 05/05 RMK SNOW DEPTH 1.00





000
SAUS46 KLOX 210359
MTR9L2
METAR K9L2 210355Z AUTO 33004KT 10SM CLR 06/04 A3016 RMK AO2 SLP224
T00610039 TSNO $





000
SAUS46 KLOX 210359
MTR9L2
METAR K9L2 210355Z AUTO 33004KT 10SM CLR 06/04 A3016 RMK AO2 SLP224
T00610039 TSNO $





000
SAUS46 KLOX 210354
MTRLAX
METAR KLAX 210353Z 08004KT 10SM FEW015 SCT120 BKN250 15/12 A3014 RMK
AO2 SLP206 T01500122





000
SAUS46 KLOX 210354
MTRMWS
METAR KMWS 210345Z 30502G04KT 05/04 RMK SNOW DEPTH 1.00





000
SAUS46 KLOX 210354
MTRMWS
METAR KMWS 210345Z 30502G04KT 05/04 RMK SNOW DEPTH 1.00





000
SAUS46 KLOX 210354
MTRLAX
METAR KLAX 210353Z 08004KT 10SM FEW015 SCT120 BKN250 15/12 A3014 RMK
AO2 SLP206 T01500122





000
SAUS46 KLOX 210353
MTRSMX
METAR KSMX 210351Z 31006KT 7SM CLR 15/13 A3022 RMK AO2 SLP234
T01500128 $





000
SAUS46 KLOX 210353
MTRSMX
METAR KSMX 210351Z 31006KT 7SM CLR 15/13 A3022 RMK AO2 SLP234
T01500128 $





000
SAUS46 KLOX 210349
MTRSDB
METAR KSDB 210348Z AUTO 34039G48KT 1/4SM -RA FG VV001 08/07 A3017
RMK AO2 PK WND 34048/0340 SLP195 P0001 T00830067





000
SAUS46 KLOX 210349
MTRSDB
METAR KSDB 210348Z AUTO 34039G48KT 1/4SM -RA FG VV001 08/07 A3017
RMK AO2 PK WND 34048/0340 SLP195 P0001 T00830067





000
SAUS46 KLOX 210348
MTRCQT
METAR KCQT 210347Z AUTO VRB03KT 9SM CLR 15/08 A3014 RMK AO2 SLP206
T01500083





000
SAUS46 KLOX 210348
MTRCQT
METAR KCQT 210347Z AUTO VRB03KT 9SM CLR 15/08 A3014 RMK AO2 SLP206
T01500083





000
SAUS46 KLOX 210336
MTRMWS
METAR KMWS 210330Z 23500G00KT MM/03 RMK SNOW DEPTH 1.00





000
SAUS46 KLOX 210336
MTRMWS
METAR KMWS 210330Z 23500G00KT MM/03 RMK SNOW DEPTH 1.00





000
SAUS46 KLOX 210333
MTRSDB
SPECI KSDB 210332Z AUTO 34038G47KT 1/4SM -RA FG VV002 08/07 A3015
RMK AO2 PK WND 34047/0328 P0001 T00830067





000
SAUS46 KLOX 210333
MTRSDB
SPECI KSDB 210332Z AUTO 34038G47KT 1/4SM -RA FG VV002 08/07 A3015
RMK AO2 PK WND 34047/0328 P0001 T00830067





000
SAUS46 KLOX 210315
MTRMWS
METAR KMWS 210300Z 17501G06KT 06/04 RMK SNOW DEPTH 1.00





000
SAUS46 KLOX 210314
MTRSDB
SPECI KSDB 210313Z AUTO 34035G43KT 1/4SM -RA FG VV001 08/07 A3015
RMK AO2 PK WND 34043/0311 P0001 T00830067





000
SAUS46 KLOX 210259
MTR9L2
METAR K9L2 210255Z AUTO 36006KT 10SM CLR 07/04 A3012 RMK AO2 SLP212
T00720044 51017 TSNO $





000
SAUS46 KLOX 210254
MTRMWS
METAR KMWS 210245Z 09004G14KT 05/03 RMK SNOW DEPTH 1.00





000
SAUS46 KLOX 210254
MTRLAX
METAR KLAX 210253Z 08003KT 10SM SCT017 SCT150 SCT250 15/13 A3015 RMK
AO2 SLP209 T01500128 53011





000
SAUS46 KLOX 210252
MTRSMX
METAR KSMX 210251Z 33008KT 9SM SCT007 16/13 A3021 RMK AO2 SLP232
T01560128 53012 $





000
SAUS46 KLOX 210250
MTRSDB
METAR KSDB 210248Z AUTO 34031G37KT 1/4SM -RA FG VV002 08/07 A3017
RMK AO2 PK WND 33042/0216 SLP196 P0001 60001 T00830067 53001





000
SAUS46 KLOX 210248
MTRCQT
METAR KCQT 210247Z AUTO 00000KT 10SM FEW023 15/12 A3015 RMK AO2
SLP208 T01500117 53013





000
SAUS46 KLOX 210236
MTRMWS
METAR KMWS 210230Z 23500G00KT MM/03 RMK SNOW DEPTH 1.00





000
SAUS46 KLOX 210226
MTRSMX
SPECI KSMX 210225Z 28006KT 8SM SCT007 SCT045 15/13 A3020 RMK AO2
T01500128 $





000
SAUS46 KLOX 210217
MTRSDB
SPECI KSDB 210216Z AUTO 35030G42KT 1/4SM -RA FG VV002 08/07 A3017
RMK AO2 PK WND 33042/0216 P0001 T00830067





000
SAUS46 KLOX 210215
MTRMWS
METAR KMWS 210200Z 10503G06KT 06/04 RMK SNOW DEPTH 1.00





000
SAUS46 KLOX 210203
MTRSDB
SPECI KSDB 210202Z AUTO 34025G36KT 3/4SM -RA BR BKN002 OVC006 08/06
A3018 RMK AO2 PK WND 34036/0157 VIS 1/4V4 P0001 T00830061





000
SAUS46 KLOX 210159
MTR9L2
METAR K9L2 210155Z AUTO 36004KT 10SM CLR 08/06 A3011 RMK AO2 SLP207
T00830056 TSNO $





000
SAUS46 KLOX 210159
MTRSDB
SPECI KSDB 210157Z AUTO 34027G36KT 1 1/2SM -RA BR BKN002 OVC006
08/06 A3018 RMK AO2 PK WND 34036/0157 VIS 1/2V4 P0001 T00830061





000
SAUS46 KLOX 210155
MTRLAX
METAR KLAX 210153Z 11004KT 10SM SCT015 BKN150 OVC250 16/13 A3012 RMK
AO2 SLP200 T01560128





000
SAUS46 KLOX 210154
MTRMWS
METAR KMWS 210145Z 35503G05KT 06/04 RMK SNOW DEPTH 1.00





000
SAUS46 KLOX 210152
MTRSMX
METAR KSMX 210151Z 28005KT 9SM BKN007 16/13 A3019 RMK AO2 SLP224
T01560133 $





000
SAUS46 KLOX 210149
MTRSDB
METAR KSDB 210148Z AUTO 33026G39KT 1/2SM -RA FG VV002 08/07 A3017
RMK AO2 PK WND 34039/0143 SLP193 P0000 T00830067





000
SAUS46 KLOX 210149
MTRCQT
METAR KCQT 210147Z AUTO 00000KT 10SM CLR 15/12 A3011 RMK AO2 SLP195
T01500117





000
SAUS46 KLOX 210147
MTRSDB
SPECI KSDB 210146Z AUTO 33031G39KT 1/2SM -RA FG VV002 08/07 A3016
RMK AO2 PK WND 34039/0143 P0000





000
SAUS46 KLOX 210136
MTRMWS
METAR KMWS 210130Z 23500G00KT MM/03 RMK SNOW DEPTH 1.00





000
SAUS46 KLOX 210134
MTRSDB
SPECI KSDB 210133Z AUTO 34024G31KT 1/4SM -RA FG VV002 08/07 A3017
RMK AO2 PK WND 34039/0053 P0000 T00830067





000
SAUS46 KLOX 210115
MTRMWS
METAR KMWS 210100Z 36001G04KT 05/04 RMK SNOW DEPTH 1.00





000
SAUS46 KLOX 210115
MTRMWS
METAR KMWS 210100Z 36001G04KT 05/04 RMK SNOW DEPTH 1.00





000
SAUS46 KLOX 210112
MTRSDB
SPECI KSDB 210111Z AUTO 33024G36KT 1/2SM -RA FG VV002 08/06 A3015
RMK AO2 PK WND 34039/0053 P0000 T00830061





000
SAUS46 KLOX 210059
MTR9L2
METAR K9L2 210055Z AUTO 34006KT 10SM CLR 09/06 A3009 RMK AO2 SLP200
T00890061 TSNO $





000
SAUS46 KLOX 210054
MTRMWS
METAR KMWS 210045Z 36007G13KT 06/04 RMK SNOW DEPTH 1.00





000
SAUS46 KLOX 210054
MTRLAX
METAR KLAX 210053Z 26005KT 10SM BKN017 BKN150 BKN250 16/13 A3012 RMK
AO2 SLP201 T01610128





000
SAUS46 KLOX 210053
MTRSMX
METAR KSMX 210051Z 30005KT 10SM BKN007 16/14 A3018 RMK AO2 SLP223
T01610139 $





000
SAUS46 KLOX 210049
MTRSDB
METAR KSDB 210048Z AUTO 34028G35KT 1/4SM -RA FG VV002 09/07 A3017
RMK AO2 PK WND 33038/0029 RAB01E22B23 SLP193 P0000 T00890067





000
SAUS46 KLOX 210048
MTRCQT
METAR KCQT 210047Z AUTO 00000KT 10SM CLR 16/12 A3013 RMK AO2 SLP201
T01560117





000
SAUS46 KLOX 210042
MTRSDB
SPECI KSDB 210040Z AUTO 34027G37KT 1/4SM -RA FG VV002 09/07 A3018
RMK AO2 PK WND 33038/0029 RAB01E22B23 P0000 T00890067





000
SAUS46 KLOX 210036
MTRMWS
METAR KMWS 210030Z 23500G00KT MM/03 RMK SNOW DEPTH 1.00





000
SAUS46 KLOX 210028
MTRSDB
SPECI KSDB 210026Z AUTO 33030G35KT 1/2SM -RA FG BKN003 OVC014 09/07
A3017 RMK AO2 PK WND 32036/2352 VIS M1/4V2 1/2 RAB01E22B23 P0000
T00890067





000
SAUS46 KLOX 210023
MTRSDB
SPECI KSDB 210022Z AUTO 33027G34KT 1/4SM FG BKN003 OVC014 09/07
A3017 RMK AO2 PK WND 32036/2352 RAB01E22 P0000 T00890067





000
SAUS46 KLOX 210016
MTRSDB
SPECI KSDB 210015Z AUTO 33027G33KT 3/4SM -RA BR SCT003 BKN006 BKN015
09/07 A3016 RMK AO2 PK WND 32036/2352 RAB01 P0000 T00890067





000
SAUS46 KLOX 210015
MTRMWS
METAR KMWS 210000Z 33003G08KT 08/05 RMK SNOW DEPTH 1.00





000
SAUS46 KLOX 210014
MTRSDB
SPECI KSDB 210013Z AUTO 33025G32KT 1SM -RA BKN003 BKN015 09/07 A3017
RMK AO2 PK WND 32036/2352 VIS 1/4V5 RAB01 P0000 T00940067





000
SAUS46 KLOX 210013
MTRSMX
SPECI KSMX 210012Z 29015KT 10SM OVC009 17/14 A3018 RMK AO2 CIG
006V011 T01670139 $





000
SAUS46 KLOX 210005
MTRSDB
SPECI KSDB 210004Z AUTO 33024G34KT 9SM -RA SCT005 BKN015 09/06 A3017
RMK AO2 PK WND 32036/2352 RAB01 P0000 T00940061





000
SAUS46 KLOX 202357
MTRMWS
METAR KMWS 202345Z 35004G10KT 08/04 RMK SNOW DEPTH 1.00





000
SAUS46 KLOX 202356
MTR9L2
METAR K9L2 202355Z AUTO 24007KT 10SM CLR 11/06 A3007 RMK AO2 SLP190
T01110061 10111 20056 56012 TSNO $





000
SAUS46 KLOX 202354
MTRLAX
METAR KLAX 202353Z 25006KT 10SM SCT018 SCT170 BKN220 BKN280 16/13
A3012 RMK AO2 SLP198 T01610128 10167 20144 56008





000
SAUS46 KLOX 202352
MTRSMX
METAR KSMX 202351Z 30012KT 10SM BKN010 OVC095 17/14 A3017 RMK AO2
SLP220 T01720139 10194 20156 52005 $





000
SAUS46 KLOX 202349
MTRCQT
METAR KCQT 202347Z AUTO 00000KT 10SM CLR 17/12 A3011 RMK AO2 SLP195
T01670117 10178 20150 56012





000
SAUS46 KLOX 202349
MTRSMX
SPECI KSMX 202348Z 10SM BKN010 OVC095 17/14 A3017 RMK AO2 $





000
SAUS46 KLOX 202349
MTRSDB
METAR KSDB 202348Z AUTO 33027G33KT 10SM SCT004 10/07 A3017 RMK AO2
PK WND 33033/2348 SLP192 T01000067 10111 20089 53001





000
SAUS46 KLOX 202347
MTRSDB
SPECI KSDB 202346Z AUTO 33025G31KT 10SM SCT004 10/07 A3016 RMK AO2
PK WND 32031/2344





000
SAUS46 KLOX 202336
MTRMWS
METAR KMWS 202330Z 23500G00KT MM/04 RMK SNOW DEPTH 1.00





000
SAUS46 KLOX 202315
MTRMWS
METAR KMWS 202300Z 33003G05KT 08/05 RMK SNOW DEPTH 1.00





000
SAUS46 KLOX 202259
MTR9L2
METAR K9L2 202255Z AUTO 16004KT 10SM CLR 09/05 A3008 RMK AO2 SLP195
T00940050 TSNO $





000
SAUS46 KLOX 202254
MTRMWS
METAR KMWS 202245Z 33503G09KT 08/05 RMK SNOW DEPTH 1.00





000
SAUS46 KLOX 202254
MTRLAX
METAR KLAX 202253Z 24004KT 10SM SCT022 SCT170 BKN220 BKN280 16/12
A3012 RMK AO2 SLP200 ACSL DSNT N T01610122





000
SAUS46 KLOX 202252
MTRSMX
METAR KSMX 202251Z AUTO 29009KT 10SM SCT018 BKN200 19/13 A3016 RMK
AO2 SLP215 T01890133 $





000
SAUS46 KLOX 202249
MTRSDB
METAR KSDB 202248Z AUTO 33018G24KT 10SM OVC003 10/07 A3016 RMK AO2
SLP190 T01000067





000
SAUS46 KLOX 202248
MTRCQT
METAR KCQT 202247Z AUTO 00000KT 10SM FEW029 17/10 A3011 RMK AO2
SLP196 T01720100





000
SAUS46 KLOX 202236
MTRMWS
METAR KMWS 202230Z 23500G00KT MM/03 RMK SNOW DEPTH 1.00





000
SAUS46 KLOX 202226
MTRSMX
SPECI KSMX 202225Z 29006KT 10SM SCT018 19/13 A3015 RMK AO2 T01890133
$





000
SAUS46 KLOX 202219
MTRSMX
SPECI KSMX 202218Z 27005KT 10SM BKN018 19/13 A3015 RMK AO2 T01890133
$





000
SAUS46 KLOX 202215
MTRMWS
METAR KMWS 202200Z 35003G08KT 07/03 RMK SNOW DEPTH 2.00





000
SAUS46 KLOX 202156
MTR9L2
METAR K9L2 202155Z AUTO 00000KT 10SM CLR 09/04 A3009 RMK AO2 SLP199
T00890039 TSNO $





000
SAUS46 KLOX 202156
MTRSDB
SPECI KSDB 202154Z AUTO 34018G23KT 3SM HZ OVC002 09/07 A3016 RMK AO2
T00940067





000
SAUS46 KLOX 202154
MTRLAX
METAR KLAX 202153Z 26006KT 10SM FEW023 SCT170 BKN220 BKN280 16/12
A3012 RMK AO2 SLP199 T01610117





000
SAUS46 KLOX 202154
MTRMWS
METAR KMWS 202145Z  0503G10KT 08/03 RMK SNOW DEPTH 2.00





000
SAUS46 KLOX 202152
MTRSDB
SPECI KSDB 202151Z AUTO 34015KT 1 1/2SM HZ OVC002 09/07 A3016 RMK
AO2 T00940067





000
SAUS46 KLOX 202152
MTRSMX
METAR KSMX 202151Z 33005KT 10SM BKN055 19/13 A3016 RMK AO2 SLP215
T01890133 $





000
SAUS46 KLOX 202149
MTRSDB
METAR KSDB 202148Z AUTO 34015KT 3/4SM BR OVC002 09/07 A3016 RMK AO2
SLP192 T00890067





000
SAUS46 KLOX 202148
MTRCQT
METAR KCQT 202147Z AUTO 00000KT 10SM FEW029 18/09 A3011 RMK AO2
SLP196 T01780094





000
SAUS46 KLOX 202139
MTRSDB
SPECI KSDB 202138Z AUTO 33017KT 3/4SM BR OVC002 09/07 A3016 RMK AO2
VIS 1/2V5 T00890067





000
SAUS46 KLOX 202136
MTRMWS
METAR KMWS 202130Z 23500G00KT MM/04 RMK SNOW DEPTH 2.00





000
SAUS46 KLOX 202136
MTRSDB
SPECI KSDB 202135Z AUTO 34016KT 1 3/4SM BR OVC002 09/07 A3016 RMK
AO2 VIS 3/4V5 T00890067





000
SAUS46 KLOX 202115
MTRMWS
METAR KMWS 202100Z 01504G15KT 07/03 RMK SNOW DEPTH 2.00





000
SAUS46 KLOX 202059
MTR9L2
METAR K9L2 202055Z AUTO 00000KT 10SM CLR 08/04 A3011 RMK AO2 SLP206
T00830044 58023 TSNO $





000
SAUS46 KLOX 202054
MTRMWS
METAR KMWS 202045Z  0503G13KT 08/04 RMK SNOW DEPTH 2.00





000
SAUS46 KLOX 202054
MTRLAX
METAR KLAX 202053Z 26006KT 10SM FEW024 SCT170 BKN200 BKN280 16/12
A3014 RMK AO2 SLP206 T01610117 58021





000
SAUS46 KLOX 202052
MTRSMX
METAR KSMX 202051Z 32005KT 10SM SCT027 BKN060 18/13 A3017 RMK AO2
SLP220 T01830128 58016 $





000
SAUS46 KLOX 202049
MTRSDB
METAR KSDB 202048Z AUTO 33015G21KT 10SM BKN003 09/06 A3018 RMK AO2
SLP199 T00890061 58012





000
SAUS46 KLOX 202048
MTRCQT
METAR KCQT 202047Z AUTO VRB03KT 10SM CLR 17/09 A3014 RMK AO2 SLP206
T01720089 58018





000
SAUS46 KLOX 202036
MTRMWS
METAR KMWS 202030Z 23500G00KT MM/03 RMK SNOW DEPTH 2.00





000
SAUS46 KLOX 202030
MTRSMX
SPECI KSMX 202029Z 02005KT 10SM SCT019 SCT028 OVC065 19/13 A3019 RMK
AO2 T01890128 $





000
SAUS46 KLOX 202015
MTRMWS
METAR KMWS 202000Z 32505G14KT 09/03 RMK SNOW DEPTH 2.00





000
SAUS46 KLOX 202012
MTRSDB
SPECI KSDB 202011Z AUTO 34014KT 10SM BKN004 BKN008 10/07 A3020 RMK
AO2 T01000067





000
SAUS46 KLOX 202008
MTRSDB
SPECI KSDB 202006Z AUTO 33011KT 10SM SCT004 BKN008 10/07 A3020 RMK
AO2 T01000067





000
SAUS46 KLOX 201956
MTR9L2
METAR K9L2 201955Z AUTO 03003KT 10SM CLR 08/04 A3015 RMK AO2 SLP218
T00780039 TSNO $





000
SAUS46 KLOX 201954
MTRMWS
METAR KMWS 201945Z 23500G00KT MM/02 RMK SNOW DEPTH 2.00





000
SAUS46 KLOX 201954
MTRLAX
METAR KLAX 201953Z 00000KT 9SM FEW022 SCT033 SCT180 BKN220 BKN280
17/10 A3017 RMK AO2 SLP215 ACSL DSNT N-NE T01670100





000
SAUS46 KLOX 201953
MTRSMX
METAR KSMX 201951Z 03003KT 10SM BKN020 18/12 A3020 RMK AO2 SLP229
T01830122 $





000
SAUS46 KLOX 201949
MTRSDB
METAR KSDB 201948Z AUTO 33018G27KT 10SM SCT007 11/06 A3021 RMK AO2
PK WND 33027/1947 SLP207 T01060061





000
SAUS46 KLOX 201948
MTRCQT
METAR KCQT 201947Z AUTO 00000KT 10SM CLR 16/09 A3016 RMK AO2 SLP213
T01610089





000
SAUS46 KLOX 201936
MTRMWS
METAR KMWS 201930Z 23500G00KT MM/02 RMK SNOW DEPTH 2.00





000
SAUS46 KLOX 201915
MTRMWS
METAR KMWS 201900Z 36002G05KT 09/03 RMK SNOW DEPTH 2.00





000
SAUS46 KLOX 201905
MTRSDB
SPECI KSDB 201903Z AUTO 34014KT 10SM FEW008 11/06 A3021 RMK AO2
T01060061





000
SAUS46 KLOX 201859
MTRLAX
METAR KLAX 201853Z COR 06003KT 10SM FEW029 SCT180 SCT220 BKN280
16/10 A3019 RMK AO2 ACSL DSNT N-NE SLP221 T01610100





000
SAUS46 KLOX 201856
MTR9L2
METAR K9L2 201855Z AUTO 00000KT 8SM CLR 06/03 A3015 RMK AO2 SLP222
T00610033 TSNO $





000
SAUS46 KLOX 201854
MTRMWS
METAR KMWS 201845Z 07002G06KT 09/03 RMK SNOW DEPTH 2.00





000
SAUS46 KLOX 201854
MTRLAX
METAR KLAX 201853Z 06003KT 10SM FEW029 SCT180 SCT220 BKN280 16/10
A3019 RMK AO2 SLP221 T01610100





000
SAUS46 KLOX 201853
MTRSMX
METAR KSMX 201851Z 00000KT 10SM OVC017 17/12 A3023 RMK AO2 SLP238
T01720117 $





000
SAUS46 KLOX 201849
MTRSDB
METAR KSDB 201848Z AUTO 35015KT 10SM CLR 11/06 A3022 RMK AO2 SLP209
T01110061





000
SAUS46 KLOX 201848
MTRCQT
METAR KCQT 201847Z AUTO 00000KT 10SM CLR 16/08 A3018 RMK AO2 SLP220
T01560083





000
SAUS46 KLOX 201836
MTRMWS
METAR KMWS 201830Z 23500G00KT MM/03 RMK SNOW DEPTH 2.00





000
SAUS46 KLOX 201815
MTRMWS
METAR KMWS 201800Z 01502G05KT 11/03 RMK SNOW DEPTH 2.00





000
SAUS46 KLOX 201759
MTR9L2
METAR K9L2 201755Z AUTO 00000KT 9SM CLR 06/03 A3018 RMK AO2 SLP232
T00560033 10061 20028 50012 TSNO $





000
SAUS46 KLOX 201754
MTRLAX
METAR KLAX 201753Z 12004KT 10SM FEW027 SCT220 BKN280 14/09 A3020 RMK
AO2 SLP227 T01440094 10144 20100 53013





000
SAUS46 KLOX 201754
MTRMWS
METAR KMWS 201745Z 30501G04KT 10/03 RMK SNOW DEPTH 2.00





000
SAUS46 KLOX 201753
MTRSMX
METAR KSMX 201751Z 25003KT 10SM OVC017 16/11 A3022 RMK AO2 SLP235
60000 T01560111 10156 20117 53012 $





000
SAUS46 KLOX 201749
MTRSDB
METAR KSDB 201748Z AUTO 35012KT 10SM CLR 10/06 A3022 RMK AO2 SLP213
T01000056 10106 20078 53009





000
SAUS46 KLOX 201748
MTRCQT
METAR KCQT 201747Z AUTO VRB03KT 10SM CLR 15/08 A3020 RMK AO2 SLP224
T01500078 10150 20100 51012





000
SAUS46 KLOX 201736
MTRMWS
METAR KMWS 201730Z 23500G00KT MM/02 RMK SNOW DEPTH 2.00





000
SAUS46 KLOX 201715
MTRMWS
METAR KMWS 201700Z  0004G07KT 07/02 RMK SNOW DEPTH 1.00





000
SAUS46 KLOX 201655
MTR9L2
METAR K9L2 201655Z AUTO 05003KT 8SM CLR 06/03 A3018 RMK AO2 SLP231
T00560033 TSNO $





000
SAUS46 KLOX 201654
MTRMWS
METAR KMWS 201645Z 33504G07KT 07/02 RMK SNOW DEPTH 1.00





000
SAUS46 KLOX 201654
MTRLAX
METAR KLAX 201653Z 10004KT 10SM FEW028 SCT200 SCT270 12/08 A3020 RMK
AO2 SLP225 T01220083





000
SAUS46 KLOX 201653
MTRSMX
METAR KSMX 201651Z 00000KT 10SM BKN018 15/11 A3020 RMK AO2 RAEMM
SLP229 P0000 T01500106 $





000
SAUS46 KLOX 201649
MTRSDB
METAR KSDB 201648Z AUTO 35009G15KT 10SM CLR 09/06 A3021 RMK AO2
SLP211 T00940056





000
SAUS46 KLOX 201648
MTRCQT
METAR KCQT 201647Z AUTO 00000KT 10SM CLR 13/08 A3019 RMK AO2 SLP223
T01330078





000
SAUS46 KLOX 201636
MTRMWS
METAR KMWS 201630Z 23500G00KT MM/02 RMK SNOW DEPTH 1.00





000
SAUS46 KLOX 201615
MTRMWS
METAR KMWS 201600Z 35006G13KT 07/03 RMK SNOW DEPTH 1.00





000
SAUS46 KLOX 201555
MTR9L2
METAR K9L2 201555Z AUTO 31005KT 7SM CLR 04/03 A3017 RMK AO2 SLP225
T00390028 TSNO $





000
SAUS46 KLOX 201554
MTRLAX
METAR KLAX 201553Z 00000KT 10SM FEW028 SCT200 BKN270 12/08 A3017 RMK
AO2 SLP215 T01170083





000
SAUS46 KLOX 201552
MTRSMX
METAR KSMX 201551Z 08003KT 10SM -RA OVC017 13/11 A3019 RMK AO2 RAB49
SLP226 P0000 T01330106 $





000
SAUS46 KLOX 201549
MTRSDB
METAR KSDB 201548Z AUTO 34007KT 10SM CLR 08/04 A3019 RMK AO2 SLP205
T00830044





000
SAUS46 KLOX 201548
MTRCQT
METAR KCQT 201547Z AUTO 09003KT 10SM CLR 11/08 A3017 RMK AO2 SLP215
T01110078





000
SAUS46 KLOX 201536
MTRMWS
METAR KMWS 201530Z 23500G00KT MM/02 RMK SNOW DEPTH 1.00





000
SAUS46 KLOX 201515
MTRMWS
METAR KMWS 201500Z 01005G10KT 05/01 RMK SNOW DEPTH 1.00





000
SAUS46 KLOX 201513
MTRSDB
SPECI KSDB 201512Z AUTO 02005G18KT 10SM SCT005 08/04 A3019 RMK AO2
T00780044





000
SAUS46 KLOX 201456
MTR9L2
METAR K9L2 201455Z AUTO 29003KT 7SM CLR 03/02 A3015 RMK AO2 SLP218
T00330022 53009 TSNO $





000
SAUS46 KLOX 201454
MTRLAX
METAR KLAX 201453Z 09004KT 10SM FEW025 BKN180 11/08 A3017 RMK AO2
SLP214 T01060083 53008





000
SAUS46 KLOX 201454
MTRMWS
METAR KMWS 201445Z 01003G08KT 06/02 RMK SNOW DEPTH 1.00





000
SAUS46 KLOX 201452
MTRSMX
METAR KSMX 201451Z 00000KT 10SM OVC018 13/11 A3018 RMK AO2 SLP223
T01280106 53004 $





000
SAUS46 KLOX 201449
MTRSDB
METAR KSDB 201448Z AUTO VRB04KT 10SM BKN006 08/05 A3019 RMK AO2 CIG
004V010 SLP206 T00780050 51013





000
SAUS46 KLOX 201448
MTRCQT
METAR KCQT 201447Z AUTO 00000KT 10SM CLR 10/08 A3016 RMK AO2 SLP213
T01000078 53005





000
SAUS46 KLOX 201439
MTRSDB
SPECI KSDB 201437Z AUTO 01006G14KT 10SM FEW008 08/04 A3019 RMK AO2
T00780044





000
SAUS46 KLOX 201436
MTRMWS
METAR KMWS 201430Z 23500G00KT MM/01 RMK SNOW DEPTH 1.00





000
SAUS46 KLOX 201415
MTRMWS
METAR KMWS 201400Z 34504G07KT 05/01 RMK SNOW DEPTH 1.00





000
SAUS46 KLOX 201402
MTRSMX
SPECI KSMX 201401Z 00000KT 10SM BKN020 BKN025 BKN100 12/09 A3016 RMK
AO2 T01220094 $





000
SAUS46 KLOX 201356
MTR9L2
METAR K9L2 201355Z AUTO 02004KT 10SM CLR 03/02 A3014 RMK AO2 SLP216
T00330022 TSNO $





000
SAUS46 KLOX 201354
MTRMWS
METAR KMWS 201345Z 34003G04KT 05/00 RMK SNOW DEPTH 1.00





000
SAUS46 KLOX 201354
MTRLAX
METAR KLAX 201353Z 00000KT 10SM SCT170 11/08 A3016 RMK AO2 SLP210
T01060083





000
SAUS46 KLOX 201353
MTRSMX
METAR KSMX 201351Z 00000KT 10SM SCT025 BKN047 BKN095 12/09 A3017 RMK
AO2 SLP217 T01220094 $





000
SAUS46 KLOX 201349
MTRSDB
METAR KSDB 201348Z AUTO 34014G19KT 10SM CLR 09/03 A3016 RMK AO2
SLP194 T00890033





000
SAUS46 KLOX 201348
MTRCQT
METAR KCQT 201347Z AUTO 00000KT 9SM CLR 10/08 A3015 RMK AO2 SLP207
T01000078





000
SAUS46 KLOX 201336
MTRMWS
METAR KMWS 201330Z 23500G00KT MM/01 RMK SNOW DEPTH 1.00





000
SAUS46 KLOX 201256
MTR9L2
METAR K9L2 201255Z AUTO 00000KT 8SM CLR 03/02 A3012 RMK AO2 SLP208
T00330017 TSNO $





000
SAUS46 KLOX 201254
MTRLAX
METAR KLAX 201253Z 00000KT 10SM SCT170 11/09 A3014 RMK AO2 SLP204
T01060089





000
SAUS46 KLOX 201254
MTRMWS
METAR KMWS 201245Z 32503G05KT 05/00 RMK SNOW DEPTH 1.00





000
SAUS46 KLOX 201253
MTRSMX
METAR KSMX 201251Z AUTO 13003KT 10SM BKN043 OVC095 12/09 A3016 RMK
AO2 SLP217 T01220094 TSNO $





000
SAUS46 KLOX 201249
MTRSDB
METAR KSDB 201248Z AUTO 33009KT 10SM CLR 09/03 A3015 RMK AO2 SLP188
T00890033





000
SAUS46 KLOX 201248
MTRCQT
METAR KCQT 201247Z AUTO 00000KT 10SM CLR 11/08 A3014 RMK AO2 SLP204
T01060083





000
SAUS46 KLOX 201236
MTRMWS
METAR KMWS 201230Z 23500G00KT MM/01 RMK SNOW DEPTH 1.00





000
SAUS46 KLOX 201215
MTRMWS
METAR KMWS 201200Z 01504G08KT 05/02 RMK SNOW DEPTH 1.00





000
SAUS46 KLOX 201155
MTR9L2
METAR K9L2 201155Z AUTO 00000KT 10SM CLR 04/03 A3012 RMK AO2 SLP206
70001 T00440028 10061 20028 58012 TSNO $





000
SAUS46 KLOX 201155
MTRLAX
METAR KLAX 201153Z 00000KT 10SM SCT150 11/09 A3015 RMK AO2 SLP206
T01060089 10144 20106 56009





000
SAUS46 KLOX 201154
MTRMWS
METAR KMWS 201145Z 02502G04KT 05/02 RMK SNOW DEPTH 1.00





000
SAUS46 KLOX 201152
MTRSMX
METAR KSMX 201151Z AUTO VRB03KT 10SM BKN050 OVC060 12/09 A3017 RMK
AO2 SLP219 T01220094 10128 20111 52000 TSNO $





000
SAUS46 KLOX 201149
MTRSDB
METAR KSDB 201148Z AUTO 34013KT 10SM CLR 09/03 A3015 RMK AO2 SLP188
T00890033 10094 20067 58010





000
SAUS46 KLOX 201148
MTRCQT
METAR KCQT 201147Z AUTO 00000KT 10SM CLR 11/08 A3015 RMK AO2 SLP208
T01110083 10133 20106 56007





000
SAUS46 KLOX 201136
MTRMWS
METAR KMWS 201130Z 23500G00KT MM/02 RMK SNOW DEPTH 1.00





000
SAUS46 KLOX 201115
MTRMWS
METAR KMWS 201100Z 02503G06KT 05/02 RMK SNOW DEPTH 1.00





000
SAUS46 KLOX 201056
MTR9L2
METAR K9L2 201055Z AUTO 31004KT 9SM CLR 03/02 A3014 RMK AO2 SLP215
T00330022 TSNO $





000
SAUS46 KLOX 201055
MTRLAX
METAR KLAX 201053Z 00000KT 10SM SCT150 12/09 A3016 RMK AO2 SLP212
T01170089





000
SAUS46 KLOX 201054
MTRMWS
METAR KMWS 201045Z  0004G05KT 05/01 RMK SNOW DEPTH 1.00





000
SAUS46 KLOX 201052
MTRSMX
METAR KSMX 201051Z AUTO 00000KT 10SM OVC055 12/09 A3017 RMK AO2
SLP219 T01170094 TSNO $





000
SAUS46 KLOX 201049
MTRSDB
METAR KSDB 201048Z AUTO 31015KT 10SM CLR 09/03 A3017 RMK AO2 SLP193
T00890033





000
SAUS46 KLOX 201048
MTRCQT
METAR KCQT 201047Z AUTO 00000KT 10SM CLR 11/08 A3016 RMK AO2 SLP211
T01110083





000
SAUS46 KLOX 201036
MTRMWS
METAR KMWS 201030Z 23500G00KT MM/01 RMK SNOW DEPTH 1.00





000
SAUS46 KLOX 201015
MTRMWS
METAR KMWS 201000Z 01005G08KT 05/01 RMK SNOW DEPTH 1.00





000
SAUS46 KLOX 200955
MTRLAX
METAR KLAX 200953Z 06005KT 10SM SCT150 12/09 A3015 RMK AO2 SLP207
T01220089





000
SAUS46 KLOX 200955
MTR9L2
METAR K9L2 200955Z AUTO 00000KT 9SM CLR 03/02 A3014 RMK AO2 SLP215
T00330017 TSNO $





000
SAUS46 KLOX 200954
MTRMWS
METAR KMWS 200945Z 03005G06KT 05/03 RMK SNOW DEPTH 1.00





000
SAUS46 KLOX 200952
MTRSMX
METAR KSMX 200951Z AUTO 09004KT 10SM OVC055 12/09 A3017 RMK AO2
SLP219 T01170094 TSNO $





000
SAUS46 KLOX 200949
MTRSDB
METAR KSDB 200948Z AUTO 31011KT 10SM SCT001 08/04 A3018 RMK AO2
SLP196 T00830039





000
SAUS46 KLOX 200948
MTRCQT
METAR KCQT 200947Z AUTO 00000KT 10SM CLR 11/08 A3014 RMK AO2 SLP207
T01110083





000
SAUS46 KLOX 200942
MTRSDB
SPECI KSDB 200941Z AUTO 31010KT 2SM HZ BKN001 08/04 A3018 RMK AO2
T00780044





000
SAUS46 KLOX 200939
MTRSDB
SPECI KSDB 200938Z AUTO 31010KT 1/2SM HZ VV001 08/04 A3018 RMK AO2
T00780044





000
SAUS46 KLOX 200936
MTRMWS
METAR KMWS 200930Z 23500G00KT MM/03 RMK SNOW DEPTH 1.00





000
SAUS46 KLOX 200935
MTRSDB
SPECI KSDB 200933Z AUTO 32010KT 1/4SM FG VV001 07/04 A3017 RMK AO2
T00670044





000
SAUS46 KLOX 200926
MTRSDB
SPECI KSDB 200925Z AUTO 35008KT 3/4SM BR VV001 07/05 A3017 RMK AO2
T00720050





000
SAUS46 KLOX 200919
MTRSDB
SPECI KSDB 200918Z AUTO 36005KT 1 3/4SM BR OVC001 07/05 A3017 RMK
AO2 VIS 3/4V4 T00720050





000
SAUS46 KLOX 200915
MTRMWS
METAR KMWS 200900Z 05005G09KT 03/02 RMK SNOW DEPTH 1.00





000
SAUS46 KLOX 200912
MTRSDB
SPECI KSDB 200911Z AUTO 01005KT 1 1/4SM BR OVC002 07/05 A3017 RMK
AO2 VIS 3/4V2 1/2 T00720050





000
SAUS46 KLOX 200906
MTRSDB
SPECI KSDB 200905Z AUTO 36006KT 1 3/4SM BR OVC002 07/05 A3018 RMK
AO2 VIS 1V5 T00720050





000
SAUS46 KLOX 200856
MTR9L2
METAR K9L2 200855Z AUTO 20003KT 9SM CLR 03/02 A3016 RMK AO2 SLP221
T00330022 50001 TSNO $





000
SAUS46 KLOX 200855
MTRLAX
METAR KLAX 200853Z 05004KT 10SM CLR 12/09 A3017 RMK AO2 SLP216
T01220089 56006





000
SAUS46 KLOX 200854
MTRMWS
METAR KMWS 200845Z 02503G06KT 03/02 RMK SNOW DEPTH 1.00





000
SAUS46 KLOX 200852
MTRSMX
METAR KSMX 200851Z AUTO 10004KT 10SM OVC065 13/09 A3017 RMK AO2
SLP218 T01280094 58003 TSNO $





000
SAUS46 KLOX 200849
MTRSDB
METAR KSDB 200848Z AUTO VRB04KT 5SM BR OVC003 07/06 A3019 RMK AO2
SLP200 T00720056 58002





000
SAUS46 KLOX 200848
MTRCQT
METAR KCQT 200847Z AUTO 00000KT 10SM CLR 12/08 A3017 RMK AO2 SLP214
T01170083 56006





000
SAUS46 KLOX 200839
MTRSDB
SPECI KSDB 200838Z AUTO 36006G15KT 10SM OVC003 07/05 A3020 RMK AO2
T00720050





000
SAUS46 KLOX 200836
MTRMWS
METAR KMWS 200830Z 23500G00KT MM/02 RMK SNOW DEPTH 1.00





000
SAUS46 KLOX 200815
MTRMWS
METAR KMWS 200800Z 35003G05KT 04/00 RMK SNOW DEPTH 1.00





000
SAUS46 KLOX 200756
MTRSDB
SPECI KSDB 200755Z AUTO 34009KT 10SM BKN007 08/05 A3023 RMK AO2 CIG
006V010 T00780050





000
SAUS46 KLOX 200756
MTR9L2
METAR K9L2 200755Z AUTO 36005KT 10SM CLR 05/03 A3018 RMK AO2 SLP227
T00500028 401170000 TSNO $





000
SAUS46 KLOX 200756
MTR9L2
METAR K9L2 200755Z AUTO 36005KT 10SM CLR 05/03 A3018 RMK AO2 SLP227
T00500028 401170000 TSNO $





000
SAUS46 KLOX 200756
MTRSDB
SPECI KSDB 200755Z AUTO 34009KT 10SM BKN007 08/05 A3023 RMK AO2 CIG
006V010 T00780050





000
SAUS46 KLOX 200754
MTRMWS
METAR KMWS 200745Z 02503G05KT 04/M02 RMK SNOW DEPTH 1.00





000
SAUS46 KLOX 200754
MTRLAX
METAR KLAX 200753Z VRB03KT 10SM CLR 13/09 A3018 RMK AO2 SLP218
T01330089 401720100





000
SAUS46 KLOX 200754
MTRMWS
METAR KMWS 200745Z 02503G05KT 04/M02 RMK SNOW DEPTH 1.00





000
SAUS46 KLOX 200754
MTRLAX
METAR KLAX 200753Z VRB03KT 10SM CLR 13/09 A3018 RMK AO2 SLP218
T01330089 401720100





000
SAUS46 KLOX 200752
MTRSMX
METAR KSMX 200751Z AUTO 09004KT 9SM BKN060 OVC075 12/09 A3020 RMK
AO2 SLP230 T01220094 401780089 TSNO $





000
SAUS46 KLOX 200752
MTRSMX
METAR KSMX 200751Z AUTO 09004KT 9SM BKN060 OVC075 12/09 A3020 RMK
AO2 SLP230 T01220094 401780089 TSNO $





000
SAUS46 KLOX 200749
MTRSDB
METAR KSDB 200748Z AUTO 34011KT 10SM SCT007 08/04 A3022 RMK AO2
SLP210 T00780044 401110044





000
SAUS46 KLOX 200749
MTRSDB
METAR KSDB 200748Z AUTO 34011KT 10SM SCT007 08/04 A3022 RMK AO2
SLP210 T00780044 401110044





000
SAUS46 KLOX 200748
MTRCQT
METAR KCQT 200747Z AUTO 00000KT 10SM CLR 12/08 A3018 RMK AO2 SLP218
T01170083 401890094





000
SAUS46 KLOX 200748
MTRCQT
METAR KCQT 200747Z AUTO 00000KT 10SM CLR 12/08 A3018 RMK AO2 SLP218
T01170083 401890094





000
SAUS46 KLOX 200747
MTRSDB
SPECI KSDB 200746Z AUTO 33012KT 10SM FEW007 08/04 A3022 RMK AO2





000
SAUS46 KLOX 200747
MTRSDB
SPECI KSDB 200746Z AUTO 33012KT 10SM FEW007 08/04 A3022 RMK AO2





000
SAUS46 KLOX 200736
MTRMWS
METAR KMWS 200730Z 23500G00KT MM/M02 RMK SNOW DEPTH 1.00





000
SAUS46 KLOX 200736
MTRMWS
METAR KMWS 200730Z 23500G00KT MM/M02 RMK SNOW DEPTH 1.00





000
SAUS46 KLOX 200715
MTRMWS
METAR KMWS 200700Z 02500G02KT 04/M04 RMK SNOW DEPTH 1.00





000
SAUS46 KLOX 200655
MTR9L2
METAR K9L2 200655Z AUTO 35005KT 10SM CLR 05/03 A3016 RMK AO2 SLP221
T00500028 TSNO $





000
SAUS46 KLOX 200654
MTRMWS
METAR KMWS 200645Z 23500G00KT MM/M06 RMK SNOW DEPTH 1.00





000
SAUS46 KLOX 200654
MTRLAX
METAR KLAX 200653Z 16003KT 10SM CLR 14/09 A3017 RMK AO2 SLP214
T01390089





000
SAUS46 KLOX 200652
MTRSMX
METAR KSMX 200651Z AUTO 06003KT 9SM BKN075 12/09 A3021 RMK AO2
SLP231 T01220094 TSNO $





000
SAUS46 KLOX 200649
MTRSDB
METAR KSDB 200648Z AUTO 33008KT 10SM CLR 07/04 A3019 RMK AO2 SLP202
T00720039





000
SAUS46 KLOX 200648
MTRCQT
METAR KCQT 200647Z AUTO 00000KT 10SM CLR 12/08 A3016 RMK AO2 SLP214
T01220083





000
SAUS46 KLOX 200636
MTRMWS
METAR KMWS 200630Z 23500G00KT MM/M06 RMK SNOW DEPTH 1.00





000
SAUS46 KLOX 200615
MTRMWS
METAR KMWS 200600Z 32503G05KT 04/M12 RMK SNOW DEPTH 1.00





000
SAUS46 KLOX 200556
MTR9L2
METAR K9L2 200555Z AUTO 00000KT 10SM CLR 06/03 A3016 RMK AO2 SLP222
T00560033 10111 20056 50007 TSNO $





000
SAUS46 KLOX 200554
MTRMWS
METAR KMWS 200545Z 24502G03KT 05/M01 RMK SNOW DEPTH 1.00





000
SAUS46 KLOX 200554
MTRLAX
METAR KLAX 200553Z 32004KT 10SM FEW025 BKN120 BKN200 14/09 A3019 RMK
AO2 SLP222 T01440094 10156 20144 53003





000
SAUS46 KLOX 200552
MTRSMX
METAR KSMX 200551Z AUTO 18004KT 9SM BKN070 12/09 A3018 RMK AO2
SLP222 T01220094 10167 20122 58004 TSNO $





000
SAUS46 KLOX 200549
MTRSDB
METAR KSDB 200548Z AUTO 35013KT 10SM CLR 07/04 A3020 RMK AO2 SLP207
T00670039 10100 20061 58002





000
SAUS46 KLOX 200548
MTRCQT
METAR KCQT 200547Z AUTO 00000KT 10SM CLR 13/09 A3018 RMK AO2 SLP220
T01330089 10161 20133 53001





000
SAUS46 KLOX 200536
MTRMWS
METAR KMWS 200530Z 23500G00KT MM/M03 RMK SNOW DEPTH 1.00





000
SAUS46 KLOX 200529
MTRSDB
SPECI KSDB 200528Z AUTO 35012KT 10SM SCT004 07/04 A3021 RMK AO2
T00670039





000
SAUS46 KLOX 200524
MTRSDB
SPECI KSDB 200523Z AUTO 36008KT 10SM BKN004 07/04 A3021 RMK AO2 CIG
003V008 T00670039





000
SAUS46 KLOX 200515
MTRMWS
METAR KMWS 200500Z 25003G04KT 05/M02 RMK SNOW DEPTH 1.00





000
SAUS46 KLOX 200504
MTRSDB
SPECI KSDB 200503Z AUTO VRB05KT 10SM BKN006 07/04 A3021 RMK AO2 CIG
005V009 T00720039





000
SAUS46 KLOX 200455
MTR9L2
METAR K9L2 200455Z AUTO VRB03KT 10SM CLR 08/01 A3017 RMK AO2 SLP226
T00780006 TSNO $





000
SAUS46 KLOX 200454
MTRMWS
METAR KMWS 200445Z 26004G04KT 05/M03 RMK SNOW DEPTH 1.00





000
SAUS46 KLOX 200454
MTRLAX
METAR KLAX 200453Z VRB04KT 10SM FEW020 BKN100 BKN250 15/10 A3018 RMK
AO2 SLP217 T01500100





000
SAUS46 KLOX 200453
MTRSMX
METAR KSMX 200451Z AUTO 11006KT 9SM CLR 12/09 A3018 RMK AO2 SLP223
T01220094 TSNO $





000
SAUS46 KLOX 200449
MTRSDB
METAR KSDB 200448Z AUTO 34007KT 10SM FEW008 07/04 A3021 RMK AO2
SLP210 T00720039





000
SAUS46 KLOX 200448
MTRCQT
METAR KCQT 200447Z AUTO 00000KT 10SM CLR 13/10 A3017 RMK AO2 SLP216
T01330100





000
SAUS46 KLOX 200436
MTRMWS
METAR KMWS 200430Z 23500G00KT MM/M03 RMK SNOW DEPTH 1.00





000
SAUS46 KLOX 200415
MTRMWS
METAR KMWS 200400Z 15501G01KT 04/M05 RMK SNOW DEPTH 1.00





000
SAUS46 KLOX 200412
MTRSMX
SPECI KSMX 200410Z AUTO 11005KT 9SM SCT023 BKN075 13/10 A3020 RMK
AO2 T01330100 TSNO $





000
SAUS46 KLOX 200356
MTR9L2
METAR K9L2 200355Z AUTO 00000KT 10SM CLR 09/01 A3015 RMK AO2 SLP220
T00940006 TSNO $





000
SAUS46 KLOX 200356
MTR9L2
METAR K9L2 200355Z AUTO 00000KT 10SM CLR 09/01 A3015 RMK AO2 SLP220
T00940006 TSNO $





000
SAUS46 KLOX 200354
MTRMWS
METAR KMWS 200345Z 28000G01KT 05/M03 RMK SNOW DEPTH 1.00





000
SAUS46 KLOX 200354
MTRMWS
METAR KMWS 200345Z 28000G01KT 05/M03 RMK SNOW DEPTH 1.00





000
SAUS46 KLOX 200354
MTRLAX
METAR KLAX 200353Z 31006KT 10SM FEW022 SCT100 BKN250 16/11 A3017 RMK
AO2 SLP215 T01560106





000
SAUS46 KLOX 200354
MTRLAX
METAR KLAX 200353Z 31006KT 10SM FEW022 SCT100 BKN250 16/11 A3017 RMK
AO2 SLP215 T01560106





000
SAUS46 KLOX 200353
MTRSMX
METAR KSMX 200351Z 15004KT 10SM OVC024 14/11 A3020 RMK AO2 SLP230
T01390106 $





000
SAUS46 KLOX 200353
MTRSMX
METAR KSMX 200351Z 15004KT 10SM OVC024 14/11 A3020 RMK AO2 SLP230
T01390106 $





000
SAUS46 KLOX 200349
MTRSDB
METAR KSDB 200348Z AUTO 30003KT 10SM CLR 07/02 A3020 RMK AO2 SLP209
T00670017





000
SAUS46 KLOX 200349
MTRSDB
METAR KSDB 200348Z AUTO 30003KT 10SM CLR 07/02 A3020 RMK AO2 SLP209
T00670017





000
SAUS46 KLOX 200348
MTRCQT
METAR KCQT 200347Z AUTO 00000KT 10SM CLR 14/10 A3016 RMK AO2 SLP214
T01390100





000
SAUS46 KLOX 200348
MTRCQT
METAR KCQT 200347Z AUTO 00000KT 10SM CLR 14/10 A3016 RMK AO2 SLP214
T01390100





000
SAUS46 KLOX 200336
MTRMWS
METAR KMWS 200330Z 23500G00KT MM/M04 RMK SNOW DEPTH 1.00





000
SAUS46 KLOX 200336
MTRMWS
METAR KMWS 200330Z 23500G00KT MM/M04 RMK SNOW DEPTH 1.00





000
SAUS46 KLOX 200315
MTRMWS
METAR KMWS 200300Z 25002G03KT 04/M06 RMK SNOW DEPTH 1.00





000
SAUS46 KLOX 200315
MTRMWS
METAR KMWS 200300Z 25002G03KT 04/M06 RMK SNOW DEPTH 1.00





000
SAUS46 KLOX 200256
MTR9L2
METAR K9L2 200255Z AUTO 25008KT 10SM CLR 09/04 A3013 RMK AO2 SLP216
T00940039 50002 TSNO $





000
SAUS46 KLOX 200254
MTRMWS
METAR KMWS 200245Z 23004G04KT 04/M06 RMK SNOW DEPTH 1.00





000
SAUS46 KLOX 200254
MTRLAX
METAR KLAX 200253Z 28010KT 10SM FEW020 SCT100 BKN250 15/11 A3018 RMK
AO2 SLP219 T01500106 51014





000
SAUS46 KLOX 200253
MTRSMX
METAR KSMX 200251Z 15003KT 10SM BKN029 OVC090 14/11 A3019 RMK AO2
SLP226 T01440106 53001 $





000
SAUS46 KLOX 200249
MTRSDB
METAR KSDB 200248Z AUTO 31009KT 10SM CLR 07/00 A3020 RMK AO2 SLP214
T00670000 53009





000
SAUS46 KLOX 200248
MTRCQT
METAR KCQT 200247Z AUTO 00000KT 10SM CLR 14/10 A3018 RMK AO2 SLP219
T01440100 53012





000
SAUS46 KLOX 200236
MTRMWS
METAR KMWS 200230Z 23500G00KT MM/M08 RMK SNOW DEPTH 1.00





000
SAUS46 KLOX 200215
MTRMWS
METAR KMWS 200200Z 22504G04KT 05/M02 RMK SNOW DEPTH 1.00





000
SAUS46 KLOX 200156
MTR9L2
METAR K9L2 200155Z AUTO 06003KT 10SM CLR 09/05 A3014 RMK AO2 SLP217
T00940050 TSNO $





000
SAUS46 KLOX 200156
MTR9L2
METAR K9L2 200155Z AUTO 06003KT 10SM CLR 09/05 A3014 RMK AO2 SLP217
T00940050 TSNO $





000
SAUS46 KLOX 200155
MTRLAX
METAR KLAX 200153Z 27010KT 10SM FEW022 BKN100 BKN250 16/10 A3017 RMK
AO2 SLP217 T01560100





000
SAUS46 KLOX 200155
MTRLAX
METAR KLAX 200153Z 27010KT 10SM FEW022 BKN100 BKN250 16/10 A3017 RMK
AO2 SLP217 T01560100





000
SAUS46 KLOX 200154
MTRMWS
METAR KMWS 200145Z 20004G04KT 06/M03 RMK SNOW DEPTH 1.00





000
SAUS46 KLOX 200154
MTRMWS
METAR KMWS 200145Z 20004G04KT 06/M03 RMK SNOW DEPTH 1.00





000
SAUS46 KLOX 200153
MTRSMX
METAR KSMX 200151Z 00000KT 10SM SCT042 16/11 A3019 RMK AO2 SLP227
T01610106 $





000
SAUS46 KLOX 200153
MTRSMX
METAR KSMX 200151Z 00000KT 10SM SCT042 16/11 A3019 RMK AO2 SLP227
T01610106 $





000
SAUS46 KLOX 200150
MTRSDB
METAR KSDB 200148Z AUTO 24005KT 10SM CLR 07/02 A3019 RMK AO2 SLP209
T00670022





000
SAUS46 KLOX 200150
MTRSDB
METAR KSDB 200148Z AUTO 24005KT 10SM CLR 07/02 A3019 RMK AO2 SLP209
T00670022





000
SAUS46 KLOX 200149
MTRCQT
METAR KCQT 200147Z AUTO 00000KT 10SM CLR 16/11 A3017 RMK AO2 SLP215
T01560111





000
SAUS46 KLOX 200149
MTRCQT
METAR KCQT 200147Z AUTO 00000KT 10SM CLR 16/11 A3017 RMK AO2 SLP215
T01560111





000
SAUS46 KLOX 200136
MTRMWS
METAR KMWS 200130Z 23500G00KT MM/M07 RMK SNOW DEPTH 1.00





000
SAUS46 KLOX 200136
MTRMWS
METAR KMWS 200130Z 23500G00KT MM/M07 RMK SNOW DEPTH 1.00





000
SAUS46 KLOX 200115
MTRMWS
METAR KMWS 200100Z 24002G03KT 06/M11 RMK SNOW DEPTH 1.00





000
SAUS46 KLOX 200056
MTR9L2
METAR K9L2 200055Z AUTO 00000KT 10SM CLR 10/05 A3013 RMK AO2 SLP215
T01000050 TSNO $





000
SAUS46 KLOX 200054
MTRLAX
METAR KLAX 200053Z 27006KT 10SM FEW020 BKN140 BKN250 16/11 A3016 RMK
AO2 SLP212 T01560111





000
SAUS46 KLOX 200054
MTRMWS
METAR KMWS 200045Z 33501G02KT 06/M13 RMK SNOW DEPTH 1.00





000
SAUS46 KLOX 200053
MTRSMX
METAR KSMX 200051Z 00000KT 10SM BKN046 OVC060 16/11 A3018 RMK AO2
SLP223 T01610111 $





000
SAUS46 KLOX 200049
MTRSDB
METAR KSDB 200048Z AUTO 21004KT 10SM CLR 07/03 A3018 RMK AO2 SLP204
T00720028





000
SAUS46 KLOX 200048
MTRCQT
METAR KCQT 200047Z AUTO 28003KT 10SM CLR 16/11 A3015 RMK AO2 SLP209
T01610106





000
SAUS46 KLOX 200036
MTRMWS
METAR KMWS 200030Z 23500G00KT MM/M03 RMK SNOW DEPTH 1.00





000
SAUS46 KLOX 200015
MTRMWS
METAR KMWS 200000Z  0001G04KT 06/05 RMK SNOW DEPTH 1.00





000
SAUS46 KLOX 192356
MTR9L2
METAR K9L2 192355Z AUTO 17005KT 10SM CLR 11/05 A3013 RMK AO2 SLP212
T01110050 10117 20072 56015 TSNO $





000
SAUS46 KLOX 192354
MTRMWS
METAR KMWS 192345Z 24502G03KT 08/04 RMK SNOW DEPTH 1.00





000
SAUS46 KLOX 192354
MTRLAX
METAR KLAX 192353Z 22003KT 10SM FEW020 BKN140 BKN250 16/11 A3014 RMK
AO2 SLP205 T01560111 10172 20150 56019





000
SAUS46 KLOX 192352
MTRSMX
METAR KSMX 192351Z 26005KT 10SM OVC055 17/11 A3019 RMK AO2 SLP225
T01670106 10178 20139 55000 $





000
SAUS46 KLOX 192349
MTRSDB
METAR KSDB 192348Z AUTO 24005KT 10SM CLR 09/03 A3017 RMK AO2 SLP200
T00890033 10111 20083 55007





000
SAUS46 KLOX 192349
MTRCQT
METAR KCQT 192347Z AUTO 26004KT 10SM CLR 16/11 A3015 RMK AO2 SLP207
T01610106 10189 20156 55012





000
SAUS46 KLOX 192336
MTRMWS
METAR KMWS 192330Z 23500G00KT MM/M04 RMK SNOW DEPTH 1.00





000
SAUS46 KLOX 192315
MTRMWS
METAR KMWS 192300Z 05005G06KT 06/03 RMK SNOW DEPTH 1.00





000
SAUS46 KLOX 192256
MTR9L2
METAR K9L2 192255Z AUTO 18005KT 10SM CLR 11/04 A3014 RMK AO2 SLP214
T01110044 TSNO $





000
SAUS46 KLOX 192254
MTRMWS
METAR KMWS 192245Z 04003G04KT 06/04 RMK SNOW DEPTH 1.00





000
SAUS46 KLOX 192254
MTRLAX
METAR KLAX 192253Z 26006KT 10SM FEW017 BKN140 BKN250 16/11 A3015 RMK
AO2 SLP210 T01560106





000
SAUS46 KLOX 192252
MTRSMX
METAR KSMX 192251Z 29005KT 10SM OVC200 18/09 A3017 RMK AO2 SLP219
T01780094 $





000
SAUS46 KLOX 192249
MTRCQT
METAR KCQT 192247Z AUTO VRB03KT 10SM CLR 17/09 A3014 RMK AO2 SLP207
T01670094





000
SAUS46 KLOX 192249
MTRSDB
METAR KSDB 192248Z AUTO 22006KT 10SM CLR 09/03 A3017 RMK AO2 SLP197
T00940033





000
SAUS46 KLOX 192236
MTRMWS
METAR KMWS 192230Z 23500G00KT MM/06 RMK SNOW DEPTH 1.00





000
SAUS46 KLOX 192215
MTRMWS
METAR KMWS 192200Z 03002G03KT 07/05 RMK SNOW DEPTH 1.00





000
SAUS46 KLOX 192156
MTR9L2
METAR K9L2 192155Z AUTO 14004KT 10SM CLR 11/04 A3015 RMK AO2 SLP219
T01110039 TSNO $





000
SAUS46 KLOX 192154
MTRLAX
METAR KLAX 192153Z 27007KT 10SM FEW022 SCT090 BKN140 BKN250 16/10
A3016 RMK AO2 SLP213 T01610100





000
SAUS46 KLOX 192154
MTRMWS
METAR KMWS 192145Z 03001G01KT 08/06 RMK SNOW DEPTH 1.00





000
SAUS46 KLOX 192153
MTRSMX
METAR KSMX 192151Z 00000KT 10SM FEW040 OVC200 18/09 A3016 RMK AO2
SLP214 T01780089 $





000
SAUS46 KLOX 192149
MTRSDB
METAR KSDB 192148Z AUTO 22009KT 10SM CLR 10/03 A3018 RMK AO2 SLP202
T01000033





000
SAUS46 KLOX 192149
MTRCQT
METAR KCQT 192147Z AUTO 00000KT 10SM CLR 17/08 A3016 RMK AO2 SLP212
T01720083





000
SAUS46 KLOX 192136
MTRMWS
METAR KMWS 192130Z 23500G00KT MM/06 RMK SNOW DEPTH 1.00





000
SAUS46 KLOX 192115
MTRMWS
METAR KMWS 192100Z 09502G03KT 10/05 RMK SNOW DEPTH 1.00





000
SAUS46 KLOX 192055
MTR9L2
METAR K9L2 192055Z AUTO 20003KT 10SM CLR 11/03 A3018 RMK AO2 SLP227
T01110033 58020 TSNO $





000
SAUS46 KLOX 192054
MTRLAX
METAR KLAX 192053Z 26009KT 10SM FEW020 SCT090 BKN140 BKN250 16/09
A3019 RMK AO2 SLP224 T01610089 57014





000
SAUS46 KLOX 192054
MTRMWS
METAR KMWS 192045Z 22506G09KT 08/05 RMK SNOW DEPTH 2.00





000
SAUS46 KLOX 192052
MTRSMX
METAR KSMX 192051Z 00000KT 10SM FEW047 BKN200 18/09 A3019 RMK AO2
SLP225 T01780089 $





000
SAUS46 KLOX 192049
MTRSDB
METAR KSDB 192048Z AUTO 20008KT 10SM CLR 10/02 A3020 RMK AO2 SLP207
T01000022 58013





000
SAUS46 KLOX 192048
MTRCQT
METAR KCQT 192047Z AUTO VRB03KT 10SM CLR 19/07 A3018 RMK AO2 SLP220
T01890072 56017





000
SAUS46 KLOX 192036
MTRMWS
METAR KMWS 192030Z 23500G00KT MM/06 RMK SNOW DEPTH 2.00





000
SAUS46 KLOX 192015
MTRMWS
METAR KMWS 192000Z 24505G06KT 06/04 RMK SNOW DEPTH 1.00





    US Dept of Commerce
    National Oceanic and Atmospheric Administration
    National Weather Service
    1325 East West Highway
    Silver Spring, MD 20910
    Page Author: NWS Internet Services Team
Disclaimer
Information Quality
Credits
Glossary
Privacy Policy
Freedom of Information Act (FOIA)
About Us
Career Opportunities